<?xml version="1.0" encoding="UTF-8" standalone="no" ?>
<gpx xmlns="http://www.topografix.com/GPX/1/1" xmlns:xsi="http://www.w3.org/2001/XMLSchema-instance" xsi:schemaLocation="http://www.topografix.com/GPX/1/1 http://www.topografix.com/GPX/1/1/gpx.xsd" version="1.1" creator="VisuGPX - https://www.visugpx.com">
  <metadata>
    <name>83 - L - Vidauban</name>
    <desc><![CDATA[Peyloubier]]></desc>
  </metadata>
  <trk>
    <name><![CDATA[Vidauban-Peyloubier]]></name>
    <extensions>
      <line xmlns="http://www.topografix.com/GPX/gpx_style/0/2">
        <color>0000FF</color>
        <width>4</width>
      </line>
    </extensions>
    <trkseg>
      <trkpt lat="43.42122" lon="6.436">
        <ele>115.8</ele>
        <time>2025-12-08T08:08:02.000Z</time>
      </trkpt>
      <trkpt lat="43.4212" lon="6.436">
        <ele>115.8</ele>
        <time>2025-12-08T08:08:06.000Z</time>
      </trkpt>
      <trkpt lat="43.42112" lon="6.43595">
        <ele>117.6</ele>
        <time>2025-12-08T08:08:29.000Z</time>
      </trkpt>
      <trkpt lat="43.42104" lon="6.43588">
        <ele>119.8</ele>
        <time>2025-12-08T08:08:44.000Z</time>
      </trkpt>
      <trkpt lat="43.42095" lon="6.43582">
        <ele>122.1</ele>
        <time>2025-12-08T08:08:56.000Z</time>
      </trkpt>
      <trkpt lat="43.42086" lon="6.43575">
        <ele>124</ele>
        <time>2025-12-08T08:09:08.000Z</time>
      </trkpt>
      <trkpt lat="43.42079" lon="6.43567">
        <ele>125.6</ele>
        <time>2025-12-08T08:09:45.000Z</time>
      </trkpt>
      <trkpt lat="43.42073" lon="6.43557">
        <ele>126.7</ele>
        <time>2025-12-08T08:09:56.000Z</time>
      </trkpt>
      <trkpt lat="43.42066" lon="6.43548">
        <ele>127.8</ele>
        <time>2025-12-08T08:10:20.000Z</time>
      </trkpt>
      <trkpt lat="43.42057" lon="6.43541">
        <ele>128.5</ele>
        <time>2025-12-08T08:10:36.000Z</time>
      </trkpt>
      <trkpt lat="43.4205" lon="6.43532">
        <ele>129.6</ele>
        <time>2025-12-08T08:10:47.000Z</time>
      </trkpt>
      <trkpt lat="43.42043" lon="6.43524">
        <ele>131.1</ele>
        <time>2025-12-08T08:11:04.000Z</time>
      </trkpt>
      <trkpt lat="43.42038" lon="6.43514">
        <ele>132.1</ele>
        <time>2025-12-08T08:11:14.000Z</time>
      </trkpt>
      <trkpt lat="43.42034" lon="6.43502">
        <ele>133.9</ele>
        <time>2025-12-08T08:11:26.000Z</time>
      </trkpt>
      <trkpt lat="43.42033" lon="6.43489">
        <ele>136.2</ele>
        <time>2025-12-08T08:11:44.000Z</time>
      </trkpt>
      <trkpt lat="43.4203" lon="6.43477">
        <ele>136.9</ele>
        <time>2025-12-08T08:11:54.000Z</time>
      </trkpt>
      <trkpt lat="43.42028" lon="6.43464">
        <ele>137.6</ele>
        <time>2025-12-08T08:12:12.000Z</time>
      </trkpt>
      <trkpt lat="43.42027" lon="6.43452">
        <ele>138</ele>
        <time>2025-12-08T08:12:52.000Z</time>
      </trkpt>
      <trkpt lat="43.42029" lon="6.43439">
        <ele>137.4</ele>
        <time>2025-12-08T08:14:18.000Z</time>
      </trkpt>
      <trkpt lat="43.42033" lon="6.43428">
        <ele>137.1</ele>
        <time>2025-12-08T08:14:28.000Z</time>
      </trkpt>
      <trkpt lat="43.42038" lon="6.43417">
        <ele>137.1</ele>
        <time>2025-12-08T08:14:40.000Z</time>
      </trkpt>
      <trkpt lat="43.42044" lon="6.43408">
        <ele>137.1</ele>
        <time>2025-12-08T08:14:50.000Z</time>
      </trkpt>
      <trkpt lat="43.4205" lon="6.43397">
        <ele>137.5</ele>
        <time>2025-12-08T08:15:01.000Z</time>
      </trkpt>
      <trkpt lat="43.42054" lon="6.43386">
        <ele>137.8</ele>
        <time>2025-12-08T08:15:37.000Z</time>
      </trkpt>
      <trkpt lat="43.42061" lon="6.43377">
        <ele>136.9</ele>
        <time>2025-12-08T08:16:21.000Z</time>
      </trkpt>
      <trkpt lat="43.42069" lon="6.4337">
        <ele>137.7</ele>
        <time>2025-12-08T08:16:30.000Z</time>
      </trkpt>
      <trkpt lat="43.42077" lon="6.43363">
        <ele>139.1</ele>
        <time>2025-12-08T08:16:42.000Z</time>
      </trkpt>
      <trkpt lat="43.42085" lon="6.43357">
        <ele>140.2</ele>
        <time>2025-12-08T08:16:54.000Z</time>
      </trkpt>
      <trkpt lat="43.42094" lon="6.43357">
        <ele>142.4</ele>
        <time>2025-12-08T08:17:08.000Z</time>
      </trkpt>
      <trkpt lat="43.42104" lon="6.4336">
        <ele>145.1</ele>
        <time>2025-12-08T08:17:27.000Z</time>
      </trkpt>
      <trkpt lat="43.4211" lon="6.43369">
        <ele>147.1</ele>
        <time>2025-12-08T08:17:45.000Z</time>
      </trkpt>
      <trkpt lat="43.42117" lon="6.43378">
        <ele>149.2</ele>
        <time>2025-12-08T08:18:00.000Z</time>
      </trkpt>
      <trkpt lat="43.42122" lon="6.43389">
        <ele>150.3</ele>
        <time>2025-12-08T08:18:20.000Z</time>
      </trkpt>
      <trkpt lat="43.42127" lon="6.43399">
        <ele>151.4</ele>
        <time>2025-12-08T08:18:36.000Z</time>
      </trkpt>
      <trkpt lat="43.42129" lon="6.43411">
        <ele>152.5</ele>
        <time>2025-12-08T08:18:47.000Z</time>
      </trkpt>
      <trkpt lat="43.42131" lon="6.43423">
        <ele>154.3</ele>
        <time>2025-12-08T08:19:10.000Z</time>
      </trkpt>
      <trkpt lat="43.42132" lon="6.43437">
        <ele>155.2</ele>
        <time>2025-12-08T08:19:25.000Z</time>
      </trkpt>
      <trkpt lat="43.4213" lon="6.43449">
        <ele>155.8</ele>
        <time>2025-12-08T08:19:37.000Z</time>
      </trkpt>
      <trkpt lat="43.42129" lon="6.43462">
        <ele>156</ele>
        <time>2025-12-08T08:19:56.000Z</time>
      </trkpt>
      <trkpt lat="43.42125" lon="6.43474">
        <ele>155.6</ele>
        <time>2025-12-08T08:20:06.000Z</time>
      </trkpt>
      <trkpt lat="43.42119" lon="6.43484">
        <ele>155.3</ele>
        <time>2025-12-08T08:20:27.000Z</time>
      </trkpt>
      <trkpt lat="43.42111" lon="6.4349">
        <ele>154.9</ele>
        <time>2025-12-08T08:21:17.000Z</time>
      </trkpt>
      <trkpt lat="43.42102" lon="6.43491">
        <ele>154.7</ele>
        <time>2025-12-08T08:21:29.000Z</time>
      </trkpt>
      <trkpt lat="43.42093" lon="6.43486">
        <ele>154.7</ele>
        <time>2025-12-08T08:21:42.000Z</time>
      </trkpt>
      <trkpt lat="43.42086" lon="6.43479">
        <ele>155.9</ele>
        <time>2025-12-08T08:21:56.000Z</time>
      </trkpt>
      <trkpt lat="43.4208" lon="6.43469">
        <ele>158.4</ele>
        <time>2025-12-08T08:22:13.000Z</time>
      </trkpt>
      <trkpt lat="43.42076" lon="6.43457">
        <ele>161.1</ele>
        <time>2025-12-08T08:22:36.000Z</time>
      </trkpt>
      <trkpt lat="43.42072" lon="6.43446">
        <ele>162.9</ele>
        <time>2025-12-08T08:23:04.000Z</time>
      </trkpt>
      <trkpt lat="43.4208" lon="6.43449">
        <ele>166.3</ele>
        <time>2025-12-08T08:23:36.000Z</time>
      </trkpt>
      <trkpt lat="43.42089" lon="6.43454">
        <ele>167.1</ele>
        <time>2025-12-08T08:23:49.000Z</time>
      </trkpt>
      <trkpt lat="43.42099" lon="6.43457">
        <ele>169.3</ele>
        <time>2025-12-08T08:24:13.000Z</time>
      </trkpt>
      <trkpt lat="43.42099" lon="6.43444">
        <ele>173.6</ele>
        <time>2025-12-08T08:25:01.000Z</time>
      </trkpt>
      <trkpt lat="43.42098" lon="6.43431">
        <ele>175.6</ele>
        <time>2025-12-08T08:25:18.000Z</time>
      </trkpt>
      <trkpt lat="43.42089" lon="6.43428">
        <ele>175.4</ele>
        <time>2025-12-08T08:29:18.000Z</time>
      </trkpt>
      <trkpt lat="43.42089" lon="6.4344">
        <ele>176.1</ele>
        <time>2025-12-08T08:30:11.000Z</time>
      </trkpt>
      <trkpt lat="43.42098" lon="6.43436">
        <ele>174.2</ele>
        <time>2025-12-08T08:35:49.000Z</time>
      </trkpt>
      <trkpt lat="43.42103" lon="6.43447">
        <ele>171.5</ele>
        <time>2025-12-08T08:38:13.000Z</time>
      </trkpt>
      <trkpt lat="43.42096" lon="6.43456">
        <ele>167.3</ele>
        <time>2025-12-08T08:39:03.000Z</time>
      </trkpt>
      <trkpt lat="43.42087" lon="6.43455">
        <ele>166.2</ele>
        <time>2025-12-08T08:39:14.000Z</time>
      </trkpt>
      <trkpt lat="43.42092" lon="6.43466">
        <ele>162.3</ele>
        <time>2025-12-08T08:39:56.000Z</time>
      </trkpt>
      <trkpt lat="43.42101" lon="6.43472">
        <ele>159.7</ele>
        <time>2025-12-08T08:40:30.000Z</time>
      </trkpt>
      <trkpt lat="43.42109" lon="6.43477">
        <ele>157.7</ele>
        <time>2025-12-08T08:40:49.000Z</time>
      </trkpt>
      <trkpt lat="43.42119" lon="6.43476">
        <ele>154.4</ele>
        <time>2025-12-08T08:41:09.000Z</time>
      </trkpt>
      <trkpt lat="43.42126" lon="6.43483">
        <ele>152.4</ele>
        <time>2025-12-08T08:42:38.000Z</time>
      </trkpt>
      <trkpt lat="43.42133" lon="6.43491">
        <ele>150.1</ele>
        <time>2025-12-08T08:43:23.000Z</time>
      </trkpt>
      <trkpt lat="43.42137" lon="6.43502">
        <ele>146.6</ele>
        <time>2025-12-08T08:44:32.000Z</time>
      </trkpt>
      <trkpt lat="43.4214" lon="6.43514">
        <ele>142.6</ele>
        <time>2025-12-08T08:45:36.000Z</time>
      </trkpt>
      <trkpt lat="43.42138" lon="6.43526">
        <ele>138.8</ele>
        <time>2025-12-08T08:46:38.000Z</time>
      </trkpt>
      <trkpt lat="43.4213" lon="6.43534">
        <ele>135.4</ele>
        <time>2025-12-08T08:47:12.000Z</time>
      </trkpt>
      <trkpt lat="43.42122" lon="6.4354">
        <ele>132.4</ele>
        <time>2025-12-08T08:47:35.000Z</time>
      </trkpt>
      <trkpt lat="43.42113" lon="6.43545">
        <ele>130.2</ele>
        <time>2025-12-08T08:48:03.000Z</time>
      </trkpt>
      <trkpt lat="43.42104" lon="6.43547">
        <ele>128.5</ele>
        <time>2025-12-08T08:48:22.000Z</time>
      </trkpt>
      <trkpt lat="43.42095" lon="6.4354">
        <ele>127.2</ele>
        <time>2025-12-08T08:49:11.000Z</time>
      </trkpt>
      <trkpt lat="43.42095" lon="6.43553">
        <ele>124.8</ele>
        <time>2025-12-08T08:50:33.000Z</time>
      </trkpt>
      <trkpt lat="43.4209" lon="6.43563">
        <ele>121.5</ele>
        <time>2025-12-08T08:51:03.000Z</time>
      </trkpt>
      <trkpt lat="43.42084" lon="6.43573">
        <ele>116.9</ele>
        <time>2025-12-08T08:52:08.000Z</time>
      </trkpt>
      <trkpt lat="43.42076" lon="6.43577">
        <ele>113</ele>
        <time>2025-12-08T08:55:06.000Z</time>
      </trkpt>
      <trkpt lat="43.42066" lon="6.43577">
        <ele>111.5</ele>
        <time>2025-12-08T08:55:20.000Z</time>
      </trkpt>
      <trkpt lat="43.42057" lon="6.43577">
        <ele>109.7</ele>
        <time>2025-12-08T08:55:34.000Z</time>
      </trkpt>
      <trkpt lat="43.42048" lon="6.43577">
        <ele>107.8</ele>
        <time>2025-12-08T08:56:01.000Z</time>
      </trkpt>
      <trkpt lat="43.4204" lon="6.43571">
        <ele>106.4</ele>
        <time>2025-12-08T08:56:17.000Z</time>
      </trkpt>
      <trkpt lat="43.42031" lon="6.43568">
        <ele>104.7</ele>
        <time>2025-12-08T08:56:32.000Z</time>
      </trkpt>
      <trkpt lat="43.42022" lon="6.43563">
        <ele>102.3</ele>
        <time>2025-12-08T08:56:47.000Z</time>
      </trkpt>
      <trkpt lat="43.42014" lon="6.43558">
        <ele>100.8</ele>
        <time>2025-12-08T08:56:59.000Z</time>
      </trkpt>
      <trkpt lat="43.42005" lon="6.43552">
        <ele>99.2</ele>
        <time>2025-12-08T08:57:12.000Z</time>
      </trkpt>
      <trkpt lat="43.41996" lon="6.43548">
        <ele>97.9</ele>
        <time>2025-12-08T08:57:25.000Z</time>
      </trkpt>
      <trkpt lat="43.41987" lon="6.43546">
        <ele>95.8</ele>
        <time>2025-12-08T08:58:35.000Z</time>
      </trkpt>
      <trkpt lat="43.4198" lon="6.43538">
        <ele>94.7</ele>
        <time>2025-12-08T08:59:03.000Z</time>
      </trkpt>
      <trkpt lat="43.41973" lon="6.4353">
        <ele>94.4</ele>
        <time>2025-12-08T08:59:31.000Z</time>
      </trkpt>
      <trkpt lat="43.41964" lon="6.43526">
        <ele>93.2</ele>
        <time>2025-12-08T09:00:03.000Z</time>
      </trkpt>
      <trkpt lat="43.4196" lon="6.43515">
        <ele>91.6</ele>
        <time>2025-12-08T09:00:57.000Z</time>
      </trkpt>
      <trkpt lat="43.4196" lon="6.43528">
        <ele>90.1</ele>
        <time>2025-12-08T09:01:25.000Z</time>
      </trkpt>
      <trkpt lat="43.4196" lon="6.4354">
        <ele>88.7</ele>
        <time>2025-12-08T09:01:42.000Z</time>
      </trkpt>
      <trkpt lat="43.4196" lon="6.43554">
        <ele>87.2</ele>
        <time>2025-12-08T09:02:04.000Z</time>
      </trkpt>
      <trkpt lat="43.41964" lon="6.43565">
        <ele>85.8</ele>
        <time>2025-12-08T09:02:32.000Z</time>
      </trkpt>
      <trkpt lat="43.41965" lon="6.43577">
        <ele>83.9</ele>
        <time>2025-12-08T09:03:07.000Z</time>
      </trkpt>
      <trkpt lat="43.41963" lon="6.4359">
        <ele>82.7</ele>
        <time>2025-12-08T09:03:18.000Z</time>
      </trkpt>
      <trkpt lat="43.41962" lon="6.43603">
        <ele>81.3</ele>
        <time>2025-12-08T09:03:34.000Z</time>
      </trkpt>
      <trkpt lat="43.4196" lon="6.43615">
        <ele>80.6</ele>
        <time>2025-12-08T09:03:44.000Z</time>
      </trkpt>
      <trkpt lat="43.41958" lon="6.43628">
        <ele>79.6</ele>
        <time>2025-12-08T09:03:59.000Z</time>
      </trkpt>
      <trkpt lat="43.41957" lon="6.43641">
        <ele>78.8</ele>
        <time>2025-12-08T09:04:09.000Z</time>
      </trkpt>
      <trkpt lat="43.41954" lon="6.43654">
        <ele>78</ele>
        <time>2025-12-08T09:04:18.000Z</time>
      </trkpt>
      <trkpt lat="43.41952" lon="6.43666">
        <ele>76.9</ele>
        <time>2025-12-08T09:04:41.000Z</time>
      </trkpt>
      <trkpt lat="43.4195" lon="6.43679">
        <ele>76.2</ele>
        <time>2025-12-08T09:04:51.000Z</time>
      </trkpt>
      <trkpt lat="43.41948" lon="6.43692">
        <ele>75.6</ele>
        <time>2025-12-08T09:05:01.000Z</time>
      </trkpt>
      <trkpt lat="43.41946" lon="6.43706">
        <ele>75</ele>
        <time>2025-12-08T09:05:12.000Z</time>
      </trkpt>
      <trkpt lat="43.41944" lon="6.43718">
        <ele>74.4</ele>
        <time>2025-12-08T09:05:32.000Z</time>
      </trkpt>
      <trkpt lat="43.4194" lon="6.4373">
        <ele>73.3</ele>
        <time>2025-12-08T09:06:11.000Z</time>
      </trkpt>
      <trkpt lat="43.41939" lon="6.43743">
        <ele>72.8</ele>
        <time>2025-12-08T09:06:23.000Z</time>
      </trkpt>
      <trkpt lat="43.41936" lon="6.43755">
        <ele>72.2</ele>
        <time>2025-12-08T09:06:37.000Z</time>
      </trkpt>
      <trkpt lat="43.41927" lon="6.43759">
        <ele>71.5</ele>
        <time>2025-12-08T09:06:58.000Z</time>
      </trkpt>
      <trkpt lat="43.41918" lon="6.43758">
        <ele>71.1</ele>
        <time>2025-12-08T09:07:30.000Z</time>
      </trkpt>
      <trkpt lat="43.41908" lon="6.43755">
        <ele>71.2</ele>
        <time>2025-12-08T09:07:41.000Z</time>
      </trkpt>
      <trkpt lat="43.41899" lon="6.43753">
        <ele>70.6</ele>
        <time>2025-12-08T09:07:51.000Z</time>
      </trkpt>
      <trkpt lat="43.41889" lon="6.43753">
        <ele>70.2</ele>
        <time>2025-12-08T09:08:01.000Z</time>
      </trkpt>
      <trkpt lat="43.4188" lon="6.43752">
        <ele>69.9</ele>
        <time>2025-12-08T09:08:12.000Z</time>
      </trkpt>
      <trkpt lat="43.41875" lon="6.43762">
        <ele>68.9</ele>
        <time>2025-12-08T09:08:44.000Z</time>
      </trkpt>
      <trkpt lat="43.41875" lon="6.43775">
        <ele>67.9</ele>
        <time>2025-12-08T09:09:00.000Z</time>
      </trkpt>
      <trkpt lat="43.41873" lon="6.43788">
        <ele>67.3</ele>
        <time>2025-12-08T09:09:16.000Z</time>
      </trkpt>
      <trkpt lat="43.41871" lon="6.43801">
        <ele>66.5</ele>
        <time>2025-12-08T09:09:29.000Z</time>
      </trkpt>
      <trkpt lat="43.41868" lon="6.43813">
        <ele>65.9</ele>
        <time>2025-12-08T09:09:42.000Z</time>
      </trkpt>
      <trkpt lat="43.41865" lon="6.43826">
        <ele>65.2</ele>
        <time>2025-12-08T09:09:55.000Z</time>
      </trkpt>
      <trkpt lat="43.41864" lon="6.43838">
        <ele>65</ele>
        <time>2025-12-08T09:10:07.000Z</time>
      </trkpt>
      <trkpt lat="43.41862" lon="6.43851">
        <ele>64.6</ele>
        <time>2025-12-08T09:10:20.000Z</time>
      </trkpt>
      <trkpt lat="43.4186" lon="6.43864">
        <ele>64</ele>
        <time>2025-12-08T09:10:33.000Z</time>
      </trkpt>
      <trkpt lat="43.41858" lon="6.43877">
        <ele>63.6</ele>
        <time>2025-12-08T09:10:46.000Z</time>
      </trkpt>
      <trkpt lat="43.41856" lon="6.4389">
        <ele>63.4</ele>
        <time>2025-12-08T09:10:58.000Z</time>
      </trkpt>
      <trkpt lat="43.41854" lon="6.43902">
        <ele>63.1</ele>
        <time>2025-12-08T09:11:10.000Z</time>
      </trkpt>
      <trkpt lat="43.41856" lon="6.43915">
        <ele>62.8</ele>
        <time>2025-12-08T09:11:24.000Z</time>
      </trkpt>
      <trkpt lat="43.41858" lon="6.43928">
        <ele>62.5</ele>
        <time>2025-12-08T09:11:38.000Z</time>
      </trkpt>
      <trkpt lat="43.41861" lon="6.4394">
        <ele>62.2</ele>
        <time>2025-12-08T09:11:51.000Z</time>
      </trkpt>
      <trkpt lat="43.41869" lon="6.43947">
        <ele>62.1</ele>
        <time>2025-12-08T09:12:02.000Z</time>
      </trkpt>
      <trkpt lat="43.41877" lon="6.43955">
        <ele>61.9</ele>
        <time>2025-12-08T09:12:12.000Z</time>
      </trkpt>
      <trkpt lat="43.41881" lon="6.43967">
        <ele>61.9</ele>
        <time>2025-12-08T09:12:23.000Z</time>
      </trkpt>
      <trkpt lat="43.41879" lon="6.43979">
        <ele>61.7</ele>
        <time>2025-12-08T09:12:41.000Z</time>
      </trkpt>
      <trkpt lat="43.41879" lon="6.43992">
        <ele>61.6</ele>
        <time>2025-12-08T09:12:53.000Z</time>
      </trkpt>
      <trkpt lat="43.41875" lon="6.44004">
        <ele>61.1</ele>
        <time>2025-12-08T09:13:02.000Z</time>
      </trkpt>
      <trkpt lat="43.41873" lon="6.44016">
        <ele>61</ele>
        <time>2025-12-08T09:13:12.000Z</time>
      </trkpt>
      <trkpt lat="43.41869" lon="6.44029">
        <ele>60.8</ele>
        <time>2025-12-08T09:13:31.000Z</time>
      </trkpt>
      <trkpt lat="43.41868" lon="6.44041">
        <ele>60.7</ele>
        <time>2025-12-08T09:13:40.000Z</time>
      </trkpt>
      <trkpt lat="43.41866" lon="6.44054">
        <ele>60.6</ele>
        <time>2025-12-08T09:13:52.000Z</time>
      </trkpt>
      <trkpt lat="43.41865" lon="6.44067">
        <ele>60.4</ele>
        <time>2025-12-08T09:14:01.000Z</time>
      </trkpt>
      <trkpt lat="43.41862" lon="6.44078">
        <ele>60.1</ele>
        <time>2025-12-08T09:14:09.000Z</time>
      </trkpt>
      <trkpt lat="43.41859" lon="6.44091">
        <ele>59.9</ele>
        <time>2025-12-08T09:14:18.000Z</time>
      </trkpt>
      <trkpt lat="43.41856" lon="6.44103">
        <ele>59.3</ele>
        <time>2025-12-08T09:14:28.000Z</time>
      </trkpt>
      <trkpt lat="43.41853" lon="6.44116">
        <ele>57.9</ele>
        <time>2025-12-08T09:14:44.000Z</time>
      </trkpt>
      <trkpt lat="43.41848" lon="6.44126">
        <ele>57.2</ele>
        <time>2025-12-08T09:14:53.000Z</time>
      </trkpt>
      <trkpt lat="43.41844" lon="6.44138">
        <ele>56.2</ele>
        <time>2025-12-08T09:15:01.000Z</time>
      </trkpt>
      <trkpt lat="43.4184" lon="6.44149">
        <ele>55.7</ele>
        <time>2025-12-08T09:15:09.000Z</time>
      </trkpt>
      <trkpt lat="43.41835" lon="6.4416">
        <ele>55.1</ele>
        <time>2025-12-08T09:15:18.000Z</time>
      </trkpt>
      <trkpt lat="43.4183" lon="6.4417">
        <ele>54.1</ele>
        <time>2025-12-08T09:15:32.000Z</time>
      </trkpt>
      <trkpt lat="43.41823" lon="6.44179">
        <ele>52.8</ele>
        <time>2025-12-08T09:15:49.000Z</time>
      </trkpt>
      <trkpt lat="43.41815" lon="6.44186">
        <ele>52</ele>
        <time>2025-12-08T09:15:57.000Z</time>
      </trkpt>
      <trkpt lat="43.41806" lon="6.44189">
        <ele>50.9</ele>
        <time>2025-12-08T09:16:06.000Z</time>
      </trkpt>
      <trkpt lat="43.41797" lon="6.44191">
        <ele>50.2</ele>
        <time>2025-12-08T09:16:15.000Z</time>
      </trkpt>
      <trkpt lat="43.41788" lon="6.44191">
        <ele>49.7</ele>
        <time>2025-12-08T09:16:25.000Z</time>
      </trkpt>
      <trkpt lat="43.41779" lon="6.44192">
        <ele>49.5</ele>
        <time>2025-12-08T09:16:34.000Z</time>
      </trkpt>
      <trkpt lat="43.4177" lon="6.44194">
        <ele>49.2</ele>
        <time>2025-12-08T09:16:42.000Z</time>
      </trkpt>
      <trkpt lat="43.41762" lon="6.44201">
        <ele>49.1</ele>
        <time>2025-12-08T09:16:51.000Z</time>
      </trkpt>
      <trkpt lat="43.41753" lon="6.44207">
        <ele>49.1</ele>
        <time>2025-12-08T09:17:00.000Z</time>
      </trkpt>
      <trkpt lat="43.41744" lon="6.44206">
        <ele>49.2</ele>
        <time>2025-12-08T09:17:10.000Z</time>
      </trkpt>
      <trkpt lat="43.41734" lon="6.44204">
        <ele>49</ele>
        <time>2025-12-08T09:17:20.000Z</time>
      </trkpt>
      <trkpt lat="43.41725" lon="6.44201">
        <ele>48</ele>
        <time>2025-12-08T09:17:29.000Z</time>
      </trkpt>
      <trkpt lat="43.41716" lon="6.44198">
        <ele>47</ele>
        <time>2025-12-08T09:17:38.000Z</time>
      </trkpt>
      <trkpt lat="43.41707" lon="6.44195">
        <ele>45.9</ele>
        <time>2025-12-08T09:17:50.000Z</time>
      </trkpt>
      <trkpt lat="43.41698" lon="6.44196">
        <ele>45.2</ele>
        <time>2025-12-08T09:18:00.000Z</time>
      </trkpt>
      <trkpt lat="43.41689" lon="6.44199">
        <ele>44.6</ele>
        <time>2025-12-08T09:18:09.000Z</time>
      </trkpt>
      <trkpt lat="43.4168" lon="6.44202">
        <ele>44.3</ele>
        <time>2025-12-08T09:18:17.000Z</time>
      </trkpt>
      <trkpt lat="43.41671" lon="6.44206">
        <ele>44</ele>
        <time>2025-12-08T09:18:26.000Z</time>
      </trkpt>
      <trkpt lat="43.41661" lon="6.44208">
        <ele>43.9</ele>
        <time>2025-12-08T09:18:36.000Z</time>
      </trkpt>
      <trkpt lat="43.41652" lon="6.44209">
        <ele>43.4</ele>
        <time>2025-12-08T09:18:45.000Z</time>
      </trkpt>
      <trkpt lat="43.41642" lon="6.44211">
        <ele>43.1</ele>
        <time>2025-12-08T09:18:54.000Z</time>
      </trkpt>
      <trkpt lat="43.41633" lon="6.44213">
        <ele>42.5</ele>
        <time>2025-12-08T09:19:04.000Z</time>
      </trkpt>
      <trkpt lat="43.41624" lon="6.44215">
        <ele>41.8</ele>
        <time>2025-12-08T09:19:14.000Z</time>
      </trkpt>
      <trkpt lat="43.41615" lon="6.44218">
        <ele>41.3</ele>
        <time>2025-12-08T09:19:25.000Z</time>
      </trkpt>
      <trkpt lat="43.41606" lon="6.44221">
        <ele>40.9</ele>
        <time>2025-12-08T09:19:36.000Z</time>
      </trkpt>
      <trkpt lat="43.41597" lon="6.44223">
        <ele>40.2</ele>
        <time>2025-12-08T09:19:49.000Z</time>
      </trkpt>
      <trkpt lat="43.41588" lon="6.44225">
        <ele>39.5</ele>
        <time>2025-12-08T09:20:41.000Z</time>
      </trkpt>
      <trkpt lat="43.41583" lon="6.44236">
        <ele>39.4</ele>
        <time>2025-12-08T09:20:54.000Z</time>
      </trkpt>
      <trkpt lat="43.41579" lon="6.44247">
        <ele>38.8</ele>
        <time>2025-12-08T09:21:28.000Z</time>
      </trkpt>
      <trkpt lat="43.4157" lon="6.44251">
        <ele>38.6</ele>
        <time>2025-12-08T09:21:36.000Z</time>
      </trkpt>
      <trkpt lat="43.41561" lon="6.44254">
        <ele>38.2</ele>
        <time>2025-12-08T09:21:49.000Z</time>
      </trkpt>
      <trkpt lat="43.41552" lon="6.44259">
        <ele>37.6</ele>
        <time>2025-12-08T09:22:01.000Z</time>
      </trkpt>
      <trkpt lat="43.41544" lon="6.44263">
        <ele>37.1</ele>
        <time>2025-12-08T09:22:12.000Z</time>
      </trkpt>
      <trkpt lat="43.41535" lon="6.44266">
        <ele>36.9</ele>
        <time>2025-12-08T09:22:21.000Z</time>
      </trkpt>
      <trkpt lat="43.41525" lon="6.4427">
        <ele>36.4</ele>
        <time>2025-12-08T09:22:40.000Z</time>
      </trkpt>
      <trkpt lat="43.41517" lon="6.44276">
        <ele>35.9</ele>
        <time>2025-12-08T09:22:50.000Z</time>
      </trkpt>
      <trkpt lat="43.41509" lon="6.44281">
        <ele>36.1</ele>
        <time>2025-12-08T09:22:58.000Z</time>
      </trkpt>
      <trkpt lat="43.41499" lon="6.44285">
        <ele>36</ele>
        <time>2025-12-08T09:23:06.000Z</time>
      </trkpt>
      <trkpt lat="43.4149" lon="6.44288">
        <ele>35.7</ele>
        <time>2025-12-08T09:23:15.000Z</time>
      </trkpt>
      <trkpt lat="43.41481" lon="6.44292">
        <ele>35.2</ele>
        <time>2025-12-08T09:23:23.000Z</time>
      </trkpt>
      <trkpt lat="43.41473" lon="6.44297">
        <ele>34.9</ele>
        <time>2025-12-08T09:23:31.000Z</time>
      </trkpt>
      <trkpt lat="43.41464" lon="6.44302">
        <ele>34.4</ele>
        <time>2025-12-08T09:23:39.000Z</time>
      </trkpt>
      <trkpt lat="43.41456" lon="6.44307">
        <ele>34</ele>
        <time>2025-12-08T09:23:47.000Z</time>
      </trkpt>
      <trkpt lat="43.41447" lon="6.44311">
        <ele>34</ele>
        <time>2025-12-08T09:24:01.000Z</time>
      </trkpt>
      <trkpt lat="43.41438" lon="6.44318">
        <ele>33.7</ele>
        <time>2025-12-08T09:24:10.000Z</time>
      </trkpt>
      <trkpt lat="43.41433" lon="6.44329">
        <ele>33.4</ele>
        <time>2025-12-08T09:24:22.000Z</time>
      </trkpt>
      <trkpt lat="43.41426" lon="6.44339">
        <ele>33.3</ele>
        <time>2025-12-08T09:24:31.000Z</time>
      </trkpt>
      <trkpt lat="43.41423" lon="6.44352">
        <ele>33.2</ele>
        <time>2025-12-08T09:24:41.000Z</time>
      </trkpt>
      <trkpt lat="43.41423" lon="6.44365">
        <ele>33.1</ele>
        <time>2025-12-08T09:24:51.000Z</time>
      </trkpt>
      <trkpt lat="43.41419" lon="6.44376">
        <ele>32.9</ele>
        <time>2025-12-08T09:25:00.000Z</time>
      </trkpt>
      <trkpt lat="43.41414" lon="6.44387">
        <ele>33</ele>
        <time>2025-12-08T09:25:11.000Z</time>
      </trkpt>
      <trkpt lat="43.41411" lon="6.44399">
        <ele>33.5</ele>
        <time>2025-12-08T09:25:23.000Z</time>
      </trkpt>
      <trkpt lat="43.41409" lon="6.44412">
        <ele>34.3</ele>
        <time>2025-12-08T09:25:32.000Z</time>
      </trkpt>
      <trkpt lat="43.41406" lon="6.44424">
        <ele>35.1</ele>
        <time>2025-12-08T09:25:42.000Z</time>
      </trkpt>
      <trkpt lat="43.41403" lon="6.44436">
        <ele>35.8</ele>
        <time>2025-12-08T09:25:52.000Z</time>
      </trkpt>
      <trkpt lat="43.41399" lon="6.44448">
        <ele>36.6</ele>
        <time>2025-12-08T09:26:12.000Z</time>
      </trkpt>
      <trkpt lat="43.41395" lon="6.4446">
        <ele>37</ele>
        <time>2025-12-08T09:26:24.000Z</time>
      </trkpt>
      <trkpt lat="43.41392" lon="6.44473">
        <ele>37.4</ele>
        <time>2025-12-08T09:26:34.000Z</time>
      </trkpt>
      <trkpt lat="43.41391" lon="6.44485">
        <ele>37.9</ele>
        <time>2025-12-08T09:26:46.000Z</time>
      </trkpt>
      <trkpt lat="43.41388" lon="6.44498">
        <ele>38.2</ele>
        <time>2025-12-08T09:26:55.000Z</time>
      </trkpt>
      <trkpt lat="43.41386" lon="6.4451">
        <ele>38.9</ele>
        <time>2025-12-08T09:27:06.000Z</time>
      </trkpt>
      <trkpt lat="43.41385" lon="6.44523">
        <ele>39.5</ele>
        <time>2025-12-08T09:27:23.000Z</time>
      </trkpt>
      <trkpt lat="43.41383" lon="6.44536">
        <ele>40.4</ele>
        <time>2025-12-08T09:27:35.000Z</time>
      </trkpt>
      <trkpt lat="43.41381" lon="6.44549">
        <ele>41.3</ele>
        <time>2025-12-08T09:27:45.000Z</time>
      </trkpt>
      <trkpt lat="43.41381" lon="6.44562">
        <ele>42.6</ele>
        <time>2025-12-08T09:27:55.000Z</time>
      </trkpt>
      <trkpt lat="43.41382" lon="6.44575">
        <ele>43.7</ele>
        <time>2025-12-08T09:28:07.000Z</time>
      </trkpt>
      <trkpt lat="43.41383" lon="6.44588">
        <ele>44.7</ele>
        <time>2025-12-08T09:28:18.000Z</time>
      </trkpt>
      <trkpt lat="43.41385" lon="6.446">
        <ele>45.3</ele>
        <time>2025-12-08T09:28:27.000Z</time>
      </trkpt>
      <trkpt lat="43.41391" lon="6.4461">
        <ele>46.7</ele>
        <time>2025-12-08T09:28:43.000Z</time>
      </trkpt>
      <trkpt lat="43.414" lon="6.44616">
        <ele>47.9</ele>
        <time>2025-12-08T09:28:56.000Z</time>
      </trkpt>
      <trkpt lat="43.41408" lon="6.44621">
        <ele>50</ele>
        <time>2025-12-08T09:29:17.000Z</time>
      </trkpt>
      <trkpt lat="43.41417" lon="6.44617">
        <ele>52</ele>
        <time>2025-12-08T09:29:42.000Z</time>
      </trkpt>
      <trkpt lat="43.41423" lon="6.44627">
        <ele>54.1</ele>
        <time>2025-12-08T09:30:36.000Z</time>
      </trkpt>
      <trkpt lat="43.4143" lon="6.44636">
        <ele>55.3</ele>
        <time>2025-12-08T09:30:54.000Z</time>
      </trkpt>
      <trkpt lat="43.41433" lon="6.44648">
        <ele>56.4</ele>
        <time>2025-12-08T09:31:07.000Z</time>
      </trkpt>
      <trkpt lat="43.41438" lon="6.44659">
        <ele>58.4</ele>
        <time>2025-12-08T09:31:24.000Z</time>
      </trkpt>
      <trkpt lat="43.41447" lon="6.44664">
        <ele>60.9</ele>
        <time>2025-12-08T09:31:43.000Z</time>
      </trkpt>
      <trkpt lat="43.41456" lon="6.44667">
        <ele>62.6</ele>
        <time>2025-12-08T09:31:58.000Z</time>
      </trkpt>
      <trkpt lat="43.41465" lon="6.44669">
        <ele>64.6</ele>
        <time>2025-12-08T09:32:18.000Z</time>
      </trkpt>
      <trkpt lat="43.41475" lon="6.44671">
        <ele>66.8</ele>
        <time>2025-12-08T09:32:41.000Z</time>
      </trkpt>
      <trkpt lat="43.41484" lon="6.44672">
        <ele>68.8</ele>
        <time>2025-12-08T09:32:58.000Z</time>
      </trkpt>
      <trkpt lat="43.41491" lon="6.44681">
        <ele>73.3</ele>
        <time>2025-12-08T09:35:24.000Z</time>
      </trkpt>
      <trkpt lat="43.41493" lon="6.44693">
        <ele>75.8</ele>
        <time>2025-12-08T09:36:07.000Z</time>
      </trkpt>
      <trkpt lat="43.41496" lon="6.44705">
        <ele>77.4</ele>
        <time>2025-12-08T09:36:41.000Z</time>
      </trkpt>
      <trkpt lat="43.415" lon="6.44716">
        <ele>78.9</ele>
        <time>2025-12-08T09:37:05.000Z</time>
      </trkpt>
      <trkpt lat="43.41502" lon="6.44729">
        <ele>79.4</ele>
        <time>2025-12-08T09:37:17.000Z</time>
      </trkpt>
      <trkpt lat="43.41504" lon="6.44741">
        <ele>80.2</ele>
        <time>2025-12-08T09:37:31.000Z</time>
      </trkpt>
      <trkpt lat="43.41509" lon="6.44752">
        <ele>81.5</ele>
        <time>2025-12-08T09:37:46.000Z</time>
      </trkpt>
      <trkpt lat="43.41517" lon="6.44758">
        <ele>82.9</ele>
        <time>2025-12-08T09:38:05.000Z</time>
      </trkpt>
      <trkpt lat="43.41522" lon="6.44768">
        <ele>83.9</ele>
        <time>2025-12-08T09:38:23.000Z</time>
      </trkpt>
      <trkpt lat="43.41529" lon="6.44777">
        <ele>84.2</ele>
        <time>2025-12-08T09:38:35.000Z</time>
      </trkpt>
      <trkpt lat="43.41533" lon="6.44789">
        <ele>85.1</ele>
        <time>2025-12-08T09:38:47.000Z</time>
      </trkpt>
      <trkpt lat="43.41538" lon="6.448">
        <ele>85.6</ele>
        <time>2025-12-08T09:39:00.000Z</time>
      </trkpt>
      <trkpt lat="43.41545" lon="6.44808">
        <ele>86.3</ele>
        <time>2025-12-08T09:39:11.000Z</time>
      </trkpt>
      <trkpt lat="43.41554" lon="6.44813">
        <ele>87.7</ele>
        <time>2025-12-08T09:39:29.000Z</time>
      </trkpt>
      <trkpt lat="43.41563" lon="6.44815">
        <ele>88.8</ele>
        <time>2025-12-08T09:39:45.000Z</time>
      </trkpt>
      <trkpt lat="43.41572" lon="6.44818">
        <ele>90.7</ele>
        <time>2025-12-08T09:40:06.000Z</time>
      </trkpt>
      <trkpt lat="43.4158" lon="6.44822">
        <ele>91.5</ele>
        <time>2025-12-08T09:40:20.000Z</time>
      </trkpt>
      <trkpt lat="43.41589" lon="6.44822">
        <ele>95.7</ele>
        <time>2025-12-08T09:42:05.000Z</time>
      </trkpt>
      <trkpt lat="43.41595" lon="6.44831">
        <ele>99.3</ele>
        <time>2025-12-08T09:44:13.000Z</time>
      </trkpt>
      <trkpt lat="43.416" lon="6.44843">
        <ele>99.8</ele>
        <time>2025-12-08T09:44:26.000Z</time>
      </trkpt>
      <trkpt lat="43.41605" lon="6.44854">
        <ele>100.5</ele>
        <time>2025-12-08T09:44:38.000Z</time>
      </trkpt>
      <trkpt lat="43.41612" lon="6.44863">
        <ele>101</ele>
        <time>2025-12-08T09:44:51.000Z</time>
      </trkpt>
      <trkpt lat="43.4162" lon="6.4487">
        <ele>102.2</ele>
        <time>2025-12-08T09:45:04.000Z</time>
      </trkpt>
      <trkpt lat="43.41627" lon="6.44879">
        <ele>102.8</ele>
        <time>2025-12-08T09:45:19.000Z</time>
      </trkpt>
      <trkpt lat="43.4163" lon="6.44891">
        <ele>103.5</ele>
        <time>2025-12-08T09:45:32.000Z</time>
      </trkpt>
      <trkpt lat="43.41636" lon="6.449">
        <ele>104.1</ele>
        <time>2025-12-08T09:45:43.000Z</time>
      </trkpt>
      <trkpt lat="43.41643" lon="6.44909">
        <ele>104.7</ele>
        <time>2025-12-08T09:45:53.000Z</time>
      </trkpt>
      <trkpt lat="43.41649" lon="6.44919">
        <ele>105.3</ele>
        <time>2025-12-08T09:46:02.000Z</time>
      </trkpt>
      <trkpt lat="43.41656" lon="6.44928">
        <ele>106.6</ele>
        <time>2025-12-08T09:46:24.000Z</time>
      </trkpt>
      <trkpt lat="43.41663" lon="6.44935">
        <ele>107.2</ele>
        <time>2025-12-08T09:46:37.000Z</time>
      </trkpt>
      <trkpt lat="43.41666" lon="6.44948">
        <ele>107.6</ele>
        <time>2025-12-08T09:46:57.000Z</time>
      </trkpt>
      <trkpt lat="43.41664" lon="6.44961">
        <ele>107.8</ele>
        <time>2025-12-08T09:47:09.000Z</time>
      </trkpt>
      <trkpt lat="43.41665" lon="6.44974">
        <ele>107.7</ele>
        <time>2025-12-08T09:47:29.000Z</time>
      </trkpt>
      <trkpt lat="43.41662" lon="6.44986">
        <ele>108.2</ele>
        <time>2025-12-08T09:47:51.000Z</time>
      </trkpt>
      <trkpt lat="43.41659" lon="6.44998">
        <ele>108.1</ele>
        <time>2025-12-08T09:48:18.000Z</time>
      </trkpt>
      <trkpt lat="43.4166" lon="6.45011">
        <ele>107.9</ele>
        <time>2025-12-08T09:48:30.000Z</time>
      </trkpt>
      <trkpt lat="43.41664" lon="6.45022">
        <ele>108.3</ele>
        <time>2025-12-08T09:48:42.000Z</time>
      </trkpt>
      <trkpt lat="43.41663" lon="6.45035">
        <ele>108.5</ele>
        <time>2025-12-08T09:48:54.000Z</time>
      </trkpt>
      <trkpt lat="43.4166" lon="6.45047">
        <ele>107.7</ele>
        <time>2025-12-08T09:49:05.000Z</time>
      </trkpt>
      <trkpt lat="43.41658" lon="6.45059">
        <ele>107.3</ele>
        <time>2025-12-08T09:49:14.000Z</time>
      </trkpt>
      <trkpt lat="43.41649" lon="6.45061">
        <ele>106.4</ele>
        <time>2025-12-08T09:49:27.000Z</time>
      </trkpt>
      <trkpt lat="43.41644" lon="6.45049">
        <ele>106.8</ele>
        <time>2025-12-08T09:49:40.000Z</time>
      </trkpt>
      <trkpt lat="43.41644" lon="6.45062">
        <ele>107.9</ele>
        <time>2025-12-08T09:50:38.000Z</time>
      </trkpt>
      <trkpt lat="43.41647" lon="6.45074">
        <ele>107.9</ele>
        <time>2025-12-08T09:50:52.000Z</time>
      </trkpt>
      <trkpt lat="43.41648" lon="6.45087">
        <ele>107.9</ele>
        <time>2025-12-08T09:51:03.000Z</time>
      </trkpt>
      <trkpt lat="43.41652" lon="6.45099">
        <ele>108.2</ele>
        <time>2025-12-08T09:51:14.000Z</time>
      </trkpt>
      <trkpt lat="43.41651" lon="6.45112">
        <ele>108.1</ele>
        <time>2025-12-08T09:51:25.000Z</time>
      </trkpt>
      <trkpt lat="43.41656" lon="6.45123">
        <ele>107.8</ele>
        <time>2025-12-08T09:51:35.000Z</time>
      </trkpt>
      <trkpt lat="43.41661" lon="6.45134">
        <ele>108.1</ele>
        <time>2025-12-08T09:51:47.000Z</time>
      </trkpt>
      <trkpt lat="43.41666" lon="6.45144">
        <ele>108.1</ele>
        <time>2025-12-08T09:51:57.000Z</time>
      </trkpt>
      <trkpt lat="43.41673" lon="6.45153">
        <ele>108.2</ele>
        <time>2025-12-08T09:52:09.000Z</time>
      </trkpt>
      <trkpt lat="43.41676" lon="6.45165">
        <ele>108.2</ele>
        <time>2025-12-08T09:52:20.000Z</time>
      </trkpt>
      <trkpt lat="43.41681" lon="6.45176">
        <ele>108</ele>
        <time>2025-12-08T09:52:32.000Z</time>
      </trkpt>
      <trkpt lat="43.41684" lon="6.45189">
        <ele>107.7</ele>
        <time>2025-12-08T09:52:47.000Z</time>
      </trkpt>
      <trkpt lat="43.41686" lon="6.45202">
        <ele>107.3</ele>
        <time>2025-12-08T09:52:58.000Z</time>
      </trkpt>
      <trkpt lat="43.41683" lon="6.45214">
        <ele>106</ele>
        <time>2025-12-08T09:53:29.000Z</time>
      </trkpt>
      <trkpt lat="43.41685" lon="6.45227">
        <ele>105.4</ele>
        <time>2025-12-08T09:53:49.000Z</time>
      </trkpt>
      <trkpt lat="43.41686" lon="6.45239">
        <ele>105</ele>
        <time>2025-12-08T09:54:00.000Z</time>
      </trkpt>
      <trkpt lat="43.41687" lon="6.45252">
        <ele>104.7</ele>
        <time>2025-12-08T09:54:10.000Z</time>
      </trkpt>
      <trkpt lat="43.41689" lon="6.45265">
        <ele>104.5</ele>
        <time>2025-12-08T09:54:19.000Z</time>
      </trkpt>
      <trkpt lat="43.41694" lon="6.45275">
        <ele>104.5</ele>
        <time>2025-12-08T09:54:30.000Z</time>
      </trkpt>
      <trkpt lat="43.41697" lon="6.45287">
        <ele>104.6</ele>
        <time>2025-12-08T09:54:40.000Z</time>
      </trkpt>
      <trkpt lat="43.41701" lon="6.45299">
        <ele>104.6</ele>
        <time>2025-12-08T09:54:50.000Z</time>
      </trkpt>
      <trkpt lat="43.41705" lon="6.45311">
        <ele>104.7</ele>
        <time>2025-12-08T09:55:00.000Z</time>
      </trkpt>
      <trkpt lat="43.41713" lon="6.45318">
        <ele>104.6</ele>
        <time>2025-12-08T09:55:14.000Z</time>
      </trkpt>
      <trkpt lat="43.41722" lon="6.45315">
        <ele>104.2</ele>
        <time>2025-12-08T09:55:25.000Z</time>
      </trkpt>
      <trkpt lat="43.41729" lon="6.45307">
        <ele>104.6</ele>
        <time>2025-12-08T09:55:37.000Z</time>
      </trkpt>
      <trkpt lat="43.41735" lon="6.45297">
        <ele>105</ele>
        <time>2025-12-08T09:55:48.000Z</time>
      </trkpt>
      <trkpt lat="43.41742" lon="6.45289">
        <ele>105.3</ele>
        <time>2025-12-08T09:56:24.000Z</time>
      </trkpt>
      <trkpt lat="43.41748" lon="6.45279">
        <ele>105.9</ele>
        <time>2025-12-08T09:56:45.000Z</time>
      </trkpt>
      <trkpt lat="43.41754" lon="6.45269">
        <ele>107.7</ele>
        <time>2025-12-08T09:57:15.000Z</time>
      </trkpt>
      <trkpt lat="43.41763" lon="6.45265">
        <ele>109.2</ele>
        <time>2025-12-08T09:57:31.000Z</time>
      </trkpt>
      <trkpt lat="43.41772" lon="6.4527">
        <ele>110.1</ele>
        <time>2025-12-08T09:58:02.000Z</time>
      </trkpt>
      <trkpt lat="43.41767" lon="6.45281">
        <ele>109.6</ele>
        <time>2025-12-08T09:58:34.000Z</time>
      </trkpt>
      <trkpt lat="43.41762" lon="6.45291">
        <ele>108.7</ele>
        <time>2025-12-08T09:58:54.000Z</time>
      </trkpt>
      <trkpt lat="43.41759" lon="6.45303">
        <ele>108.5</ele>
        <time>2025-12-08T09:59:43.000Z</time>
      </trkpt>
      <trkpt lat="43.41759" lon="6.45316">
        <ele>110.6</ele>
        <time>2025-12-08T10:00:20.000Z</time>
      </trkpt>
      <trkpt lat="43.41765" lon="6.45325">
        <ele>110.6</ele>
        <time>2025-12-08T10:00:36.000Z</time>
      </trkpt>
      <trkpt lat="43.41766" lon="6.45338">
        <ele>110.8</ele>
        <time>2025-12-08T10:01:15.000Z</time>
      </trkpt>
      <trkpt lat="43.41766" lon="6.45351">
        <ele>112.4</ele>
        <time>2025-12-08T10:01:49.000Z</time>
      </trkpt>
      <trkpt lat="43.41757" lon="6.45352">
        <ele>111.1</ele>
        <time>2025-12-08T10:02:06.000Z</time>
      </trkpt>
      <trkpt lat="43.41748" lon="6.45353">
        <ele>109.7</ele>
        <time>2025-12-08T10:02:30.000Z</time>
      </trkpt>
      <trkpt lat="43.41739" lon="6.4535">
        <ele>108.7</ele>
        <time>2025-12-08T10:02:54.000Z</time>
      </trkpt>
      <trkpt lat="43.41736" lon="6.45363">
        <ele>108.1</ele>
        <time>2025-12-08T10:03:22.000Z</time>
      </trkpt>
      <trkpt lat="43.41742" lon="6.45373">
        <ele>108.8</ele>
        <time>2025-12-08T10:04:11.000Z</time>
      </trkpt>
      <trkpt lat="43.41738" lon="6.45384">
        <ele>111</ele>
        <time>2025-12-08T10:04:35.000Z</time>
      </trkpt>
      <trkpt lat="43.41743" lon="6.45394">
        <ele>109.7</ele>
        <time>2025-12-08T10:05:16.000Z</time>
      </trkpt>
      <trkpt lat="43.41751" lon="6.45401">
        <ele>111.9</ele>
        <time>2025-12-08T10:05:44.000Z</time>
      </trkpt>
      <trkpt lat="43.41754" lon="6.45413">
        <ele>112.6</ele>
        <time>2025-12-08T10:06:04.000Z</time>
      </trkpt>
      <trkpt lat="43.41754" lon="6.45426">
        <ele>112.7</ele>
        <time>2025-12-08T10:06:27.000Z</time>
      </trkpt>
      <trkpt lat="43.41755" lon="6.45438">
        <ele>112.6</ele>
        <time>2025-12-08T10:06:38.000Z</time>
      </trkpt>
      <trkpt lat="43.41754" lon="6.45451">
        <ele>113</ele>
        <time>2025-12-08T10:06:53.000Z</time>
      </trkpt>
      <trkpt lat="43.41754" lon="6.45464">
        <ele>112.4</ele>
        <time>2025-12-08T10:07:18.000Z</time>
      </trkpt>
      <trkpt lat="43.41756" lon="6.45477">
        <ele>112.3</ele>
        <time>2025-12-08T10:07:32.000Z</time>
      </trkpt>
      <trkpt lat="43.4176" lon="6.45489">
        <ele>112.6</ele>
        <time>2025-12-08T10:07:46.000Z</time>
      </trkpt>
      <trkpt lat="43.41765" lon="6.45499">
        <ele>113.1</ele>
        <time>2025-12-08T10:08:05.000Z</time>
      </trkpt>
      <trkpt lat="43.41767" lon="6.45511">
        <ele>113.5</ele>
        <time>2025-12-08T10:08:16.000Z</time>
      </trkpt>
      <trkpt lat="43.41773" lon="6.45522">
        <ele>113.4</ele>
        <time>2025-12-08T10:08:27.000Z</time>
      </trkpt>
      <trkpt lat="43.4178" lon="6.4553">
        <ele>113.4</ele>
        <time>2025-12-08T10:08:38.000Z</time>
      </trkpt>
      <trkpt lat="43.41786" lon="6.45541">
        <ele>114.2</ele>
        <time>2025-12-08T10:08:53.000Z</time>
      </trkpt>
      <trkpt lat="43.41792" lon="6.4555">
        <ele>114.8</ele>
        <time>2025-12-08T10:09:11.000Z</time>
      </trkpt>
      <trkpt lat="43.41799" lon="6.4556">
        <ele>113.4</ele>
        <time>2025-12-08T10:09:24.000Z</time>
      </trkpt>
      <trkpt lat="43.41807" lon="6.45567">
        <ele>113.7</ele>
        <time>2025-12-08T10:09:51.000Z</time>
      </trkpt>
      <trkpt lat="43.41815" lon="6.45574">
        <ele>114.7</ele>
        <time>2025-12-08T10:10:08.000Z</time>
      </trkpt>
      <trkpt lat="43.41822" lon="6.45582">
        <ele>115.4</ele>
        <time>2025-12-08T10:10:23.000Z</time>
      </trkpt>
      <trkpt lat="43.41828" lon="6.45591">
        <ele>116.9</ele>
        <time>2025-12-08T10:11:03.000Z</time>
      </trkpt>
      <trkpt lat="43.41833" lon="6.45602">
        <ele>117.7</ele>
        <time>2025-12-08T10:11:17.000Z</time>
      </trkpt>
      <trkpt lat="43.41841" lon="6.45608">
        <ele>118.4</ele>
        <time>2025-12-08T10:11:28.000Z</time>
      </trkpt>
      <trkpt lat="43.41849" lon="6.45613">
        <ele>120.1</ele>
        <time>2025-12-08T10:12:31.000Z</time>
      </trkpt>
      <trkpt lat="43.41855" lon="6.45623">
        <ele>120.9</ele>
        <time>2025-12-08T10:12:56.000Z</time>
      </trkpt>
      <trkpt lat="43.41863" lon="6.45633">
        <ele>123</ele>
        <time>2025-12-08T10:13:14.000Z</time>
      </trkpt>
      <trkpt lat="43.41865" lon="6.45645">
        <ele>124.3</ele>
        <time>2025-12-08T10:13:27.000Z</time>
      </trkpt>
      <trkpt lat="43.41868" lon="6.45657">
        <ele>125.6</ele>
        <time>2025-12-08T10:13:42.000Z</time>
      </trkpt>
      <trkpt lat="43.4187" lon="6.45669">
        <ele>126.8</ele>
        <time>2025-12-08T10:13:57.000Z</time>
      </trkpt>
      <trkpt lat="43.41879" lon="6.45668">
        <ele>129</ele>
        <time>2025-12-08T10:15:53.000Z</time>
      </trkpt>
      <trkpt lat="43.41888" lon="6.45669">
        <ele>129.9</ele>
        <time>2025-12-08T10:16:17.000Z</time>
      </trkpt>
      <trkpt lat="43.41897" lon="6.45666">
        <ele>131.6</ele>
        <time>2025-12-08T10:17:04.000Z</time>
      </trkpt>
      <trkpt lat="43.41906" lon="6.45665">
        <ele>134.4</ele>
        <time>2025-12-08T10:17:32.000Z</time>
      </trkpt>
      <trkpt lat="43.41915" lon="6.45664">
        <ele>136.3</ele>
        <time>2025-12-08T10:18:02.000Z</time>
      </trkpt>
      <trkpt lat="43.41922" lon="6.45655">
        <ele>137.6</ele>
        <time>2025-12-08T10:18:20.000Z</time>
      </trkpt>
      <trkpt lat="43.41931" lon="6.45656">
        <ele>141.2</ele>
        <time>2025-12-08T10:19:17.000Z</time>
      </trkpt>
      <trkpt lat="43.41937" lon="6.45646">
        <ele>143.4</ele>
        <time>2025-12-08T10:21:09.000Z</time>
      </trkpt>
      <trkpt lat="43.41941" lon="6.45634">
        <ele>143.5</ele>
        <time>2025-12-08T10:21:19.000Z</time>
      </trkpt>
      <trkpt lat="43.41946" lon="6.45624">
        <ele>143.8</ele>
        <time>2025-12-08T10:21:30.000Z</time>
      </trkpt>
      <trkpt lat="43.41951" lon="6.45614">
        <ele>145.1</ele>
        <time>2025-12-08T10:22:14.000Z</time>
      </trkpt>
      <trkpt lat="43.4196" lon="6.45611">
        <ele>145.9</ele>
        <time>2025-12-08T10:22:44.000Z</time>
      </trkpt>
      <trkpt lat="43.4197" lon="6.4561">
        <ele>146.9</ele>
        <time>2025-12-08T10:22:56.000Z</time>
      </trkpt>
      <trkpt lat="43.41978" lon="6.45605">
        <ele>148.3</ele>
        <time>2025-12-08T10:23:08.000Z</time>
      </trkpt>
      <trkpt lat="43.41987" lon="6.456">
        <ele>149.4</ele>
        <time>2025-12-08T10:23:23.000Z</time>
      </trkpt>
      <trkpt lat="43.41996" lon="6.45595">
        <ele>149.7</ele>
        <time>2025-12-08T10:23:34.000Z</time>
      </trkpt>
      <trkpt lat="43.42005" lon="6.45591">
        <ele>150.1</ele>
        <time>2025-12-08T10:23:45.000Z</time>
      </trkpt>
      <trkpt lat="43.42013" lon="6.45584">
        <ele>150.8</ele>
        <time>2025-12-08T10:24:02.000Z</time>
      </trkpt>
      <trkpt lat="43.42017" lon="6.45573">
        <ele>151.2</ele>
        <time>2025-12-08T10:24:15.000Z</time>
      </trkpt>
      <trkpt lat="43.42022" lon="6.45562">
        <ele>152</ele>
        <time>2025-12-08T10:24:27.000Z</time>
      </trkpt>
      <trkpt lat="43.42029" lon="6.45553">
        <ele>152.5</ele>
        <time>2025-12-08T10:24:37.000Z</time>
      </trkpt>
      <trkpt lat="43.42036" lon="6.45544">
        <ele>153.1</ele>
        <time>2025-12-08T10:24:49.000Z</time>
      </trkpt>
      <trkpt lat="43.42043" lon="6.45535">
        <ele>153.9</ele>
        <time>2025-12-08T10:25:01.000Z</time>
      </trkpt>
      <trkpt lat="43.42048" lon="6.45523">
        <ele>154.2</ele>
        <time>2025-12-08T10:25:14.000Z</time>
      </trkpt>
      <trkpt lat="43.42055" lon="6.45514">
        <ele>154.1</ele>
        <time>2025-12-08T10:25:25.000Z</time>
      </trkpt>
      <trkpt lat="43.42061" lon="6.45505">
        <ele>154</ele>
        <time>2025-12-08T10:25:35.000Z</time>
      </trkpt>
      <trkpt lat="43.42066" lon="6.45495">
        <ele>153.8</ele>
        <time>2025-12-08T10:25:46.000Z</time>
      </trkpt>
      <trkpt lat="43.42073" lon="6.45486">
        <ele>153.7</ele>
        <time>2025-12-08T10:25:57.000Z</time>
      </trkpt>
      <trkpt lat="43.42079" lon="6.45476">
        <ele>153.5</ele>
        <time>2025-12-08T10:26:49.000Z</time>
      </trkpt>
      <trkpt lat="43.42086" lon="6.45466">
        <ele>153.1</ele>
        <time>2025-12-08T10:27:02.000Z</time>
      </trkpt>
      <trkpt lat="43.42092" lon="6.45457">
        <ele>152.8</ele>
        <time>2025-12-08T10:27:12.000Z</time>
      </trkpt>
      <trkpt lat="43.421" lon="6.45451">
        <ele>152.4</ele>
        <time>2025-12-08T10:27:23.000Z</time>
      </trkpt>
      <trkpt lat="43.42109" lon="6.4545">
        <ele>152.1</ele>
        <time>2025-12-08T10:27:35.000Z</time>
      </trkpt>
      <trkpt lat="43.42114" lon="6.45438">
        <ele>152.5</ele>
        <time>2025-12-08T10:28:05.000Z</time>
      </trkpt>
      <trkpt lat="43.42119" lon="6.45449">
        <ele>152.4</ele>
        <time>2025-12-08T10:28:19.000Z</time>
      </trkpt>
      <trkpt lat="43.42125" lon="6.45459">
        <ele>152.4</ele>
        <time>2025-12-08T10:28:30.000Z</time>
      </trkpt>
      <trkpt lat="43.42127" lon="6.45472">
        <ele>151.9</ele>
        <time>2025-12-08T10:28:41.000Z</time>
      </trkpt>
      <trkpt lat="43.42127" lon="6.45485">
        <ele>151.6</ele>
        <time>2025-12-08T10:28:51.000Z</time>
      </trkpt>
      <trkpt lat="43.42128" lon="6.45498">
        <ele>151</ele>
        <time>2025-12-08T10:29:02.000Z</time>
      </trkpt>
      <trkpt lat="43.42129" lon="6.45512">
        <ele>150.9</ele>
        <time>2025-12-08T10:29:14.000Z</time>
      </trkpt>
      <trkpt lat="43.42129" lon="6.45525">
        <ele>150.3</ele>
        <time>2025-12-08T10:29:25.000Z</time>
      </trkpt>
      <trkpt lat="43.4213" lon="6.45537">
        <ele>150.1</ele>
        <time>2025-12-08T10:29:36.000Z</time>
      </trkpt>
      <trkpt lat="43.42132" lon="6.45551">
        <ele>150.2</ele>
        <time>2025-12-08T10:29:54.000Z</time>
      </trkpt>
      <trkpt lat="43.42131" lon="6.45563">
        <ele>149.3</ele>
        <time>2025-12-08T10:30:07.000Z</time>
      </trkpt>
      <trkpt lat="43.42127" lon="6.45575">
        <ele>148.6</ele>
        <time>2025-12-08T10:30:18.000Z</time>
      </trkpt>
      <trkpt lat="43.42124" lon="6.45587">
        <ele>147.9</ele>
        <time>2025-12-08T10:30:34.000Z</time>
      </trkpt>
      <trkpt lat="43.42119" lon="6.45598">
        <ele>147.5</ele>
        <time>2025-12-08T10:30:45.000Z</time>
      </trkpt>
      <trkpt lat="43.42115" lon="6.45609">
        <ele>147.4</ele>
        <time>2025-12-08T10:30:55.000Z</time>
      </trkpt>
      <trkpt lat="43.42109" lon="6.45618">
        <ele>146.5</ele>
        <time>2025-12-08T10:31:06.000Z</time>
      </trkpt>
      <trkpt lat="43.42102" lon="6.45628">
        <ele>146</ele>
        <time>2025-12-08T10:31:20.000Z</time>
      </trkpt>
      <trkpt lat="43.42097" lon="6.45638">
        <ele>145.7</ele>
        <time>2025-12-08T10:31:49.000Z</time>
      </trkpt>
      <trkpt lat="43.42094" lon="6.4565">
        <ele>145.5</ele>
        <time>2025-12-08T10:32:05.000Z</time>
      </trkpt>
      <trkpt lat="43.4209" lon="6.45663">
        <ele>144.6</ele>
        <time>2025-12-08T10:32:17.000Z</time>
      </trkpt>
      <trkpt lat="43.42087" lon="6.45675">
        <ele>143.2</ele>
        <time>2025-12-08T10:32:30.000Z</time>
      </trkpt>
      <trkpt lat="43.42084" lon="6.45687">
        <ele>142.9</ele>
        <time>2025-12-08T10:32:43.000Z</time>
      </trkpt>
      <trkpt lat="43.42082" lon="6.45699">
        <ele>142.3</ele>
        <time>2025-12-08T10:32:56.000Z</time>
      </trkpt>
      <trkpt lat="43.4208" lon="6.45712">
        <ele>142</ele>
        <time>2025-12-08T10:33:08.000Z</time>
      </trkpt>
      <trkpt lat="43.42075" lon="6.45724">
        <ele>141.8</ele>
        <time>2025-12-08T10:33:21.000Z</time>
      </trkpt>
      <trkpt lat="43.42071" lon="6.45736">
        <ele>141.2</ele>
        <time>2025-12-08T10:33:32.000Z</time>
      </trkpt>
      <trkpt lat="43.42066" lon="6.45747">
        <ele>141.3</ele>
        <time>2025-12-08T10:33:43.000Z</time>
      </trkpt>
      <trkpt lat="43.42061" lon="6.45758">
        <ele>140.6</ele>
        <time>2025-12-08T10:33:58.000Z</time>
      </trkpt>
      <trkpt lat="43.42056" lon="6.45768">
        <ele>139.7</ele>
        <time>2025-12-08T10:34:10.000Z</time>
      </trkpt>
      <trkpt lat="43.42048" lon="6.45775">
        <ele>138.3</ele>
        <time>2025-12-08T10:34:28.000Z</time>
      </trkpt>
      <trkpt lat="43.42041" lon="6.45784">
        <ele>137.6</ele>
        <time>2025-12-08T10:34:39.000Z</time>
      </trkpt>
      <trkpt lat="43.42034" lon="6.45793">
        <ele>137.1</ele>
        <time>2025-12-08T10:34:50.000Z</time>
      </trkpt>
      <trkpt lat="43.42029" lon="6.45803">
        <ele>136.7</ele>
        <time>2025-12-08T10:35:02.000Z</time>
      </trkpt>
      <trkpt lat="43.42025" lon="6.45815">
        <ele>135.3</ele>
        <time>2025-12-08T10:35:17.000Z</time>
      </trkpt>
      <trkpt lat="43.42021" lon="6.45826">
        <ele>134.1</ele>
        <time>2025-12-08T10:35:29.000Z</time>
      </trkpt>
      <trkpt lat="43.42018" lon="6.45838">
        <ele>133.1</ele>
        <time>2025-12-08T10:35:48.000Z</time>
      </trkpt>
      <trkpt lat="43.42016" lon="6.4585">
        <ele>132.5</ele>
        <time>2025-12-08T10:36:00.000Z</time>
      </trkpt>
      <trkpt lat="43.42013" lon="6.45862">
        <ele>132.1</ele>
        <time>2025-12-08T10:36:15.000Z</time>
      </trkpt>
      <trkpt lat="43.42007" lon="6.45872">
        <ele>132</ele>
        <time>2025-12-08T10:36:26.000Z</time>
      </trkpt>
      <trkpt lat="43.42003" lon="6.45883">
        <ele>131.4</ele>
        <time>2025-12-08T10:36:36.000Z</time>
      </trkpt>
      <trkpt lat="43.41997" lon="6.45892">
        <ele>130.9</ele>
        <time>2025-12-08T10:36:46.000Z</time>
      </trkpt>
      <trkpt lat="43.41991" lon="6.45903">
        <ele>130.6</ele>
        <time>2025-12-08T10:36:58.000Z</time>
      </trkpt>
      <trkpt lat="43.41983" lon="6.4591">
        <ele>130.3</ele>
        <time>2025-12-08T10:37:13.000Z</time>
      </trkpt>
      <trkpt lat="43.41977" lon="6.45919">
        <ele>128.7</ele>
        <time>2025-12-08T10:37:27.000Z</time>
      </trkpt>
      <trkpt lat="43.41971" lon="6.45929">
        <ele>127.4</ele>
        <time>2025-12-08T10:37:47.000Z</time>
      </trkpt>
      <trkpt lat="43.4197" lon="6.45941">
        <ele>126.1</ele>
        <time>2025-12-08T10:38:05.000Z</time>
      </trkpt>
      <trkpt lat="43.41972" lon="6.45954">
        <ele>124.9</ele>
        <time>2025-12-08T10:38:17.000Z</time>
      </trkpt>
      <trkpt lat="43.41977" lon="6.45964">
        <ele>124.1</ele>
        <time>2025-12-08T10:38:30.000Z</time>
      </trkpt>
      <trkpt lat="43.41981" lon="6.45976">
        <ele>123.8</ele>
        <time>2025-12-08T10:38:51.000Z</time>
      </trkpt>
      <trkpt lat="43.41983" lon="6.45989">
        <ele>123.7</ele>
        <time>2025-12-08T10:39:02.000Z</time>
      </trkpt>
      <trkpt lat="43.41982" lon="6.46001">
        <ele>123.5</ele>
        <time>2025-12-08T10:39:13.000Z</time>
      </trkpt>
      <trkpt lat="43.41982" lon="6.46014">
        <ele>123.7</ele>
        <time>2025-12-08T10:39:23.000Z</time>
      </trkpt>
      <trkpt lat="43.41978" lon="6.46027">
        <ele>123.7</ele>
        <time>2025-12-08T10:39:35.000Z</time>
      </trkpt>
      <trkpt lat="43.41973" lon="6.46037">
        <ele>123.5</ele>
        <time>2025-12-08T10:39:46.000Z</time>
      </trkpt>
      <trkpt lat="43.41966" lon="6.46046">
        <ele>122.8</ele>
        <time>2025-12-08T10:39:56.000Z</time>
      </trkpt>
      <trkpt lat="43.41959" lon="6.46054">
        <ele>121.8</ele>
        <time>2025-12-08T10:40:14.000Z</time>
      </trkpt>
      <trkpt lat="43.41951" lon="6.46062">
        <ele>121</ele>
        <time>2025-12-08T10:40:25.000Z</time>
      </trkpt>
      <trkpt lat="43.41944" lon="6.46071">
        <ele>121.1</ele>
        <time>2025-12-08T10:40:36.000Z</time>
      </trkpt>
      <trkpt lat="43.41936" lon="6.46078">
        <ele>120.7</ele>
        <time>2025-12-08T10:40:46.000Z</time>
      </trkpt>
      <trkpt lat="43.41931" lon="6.46089">
        <ele>119.8</ele>
        <time>2025-12-08T10:40:57.000Z</time>
      </trkpt>
      <trkpt lat="43.41926" lon="6.461">
        <ele>118.5</ele>
        <time>2025-12-08T10:41:08.000Z</time>
      </trkpt>
      <trkpt lat="43.41921" lon="6.46111">
        <ele>117.7</ele>
        <time>2025-12-08T10:41:22.000Z</time>
      </trkpt>
      <trkpt lat="43.41917" lon="6.46123">
        <ele>117</ele>
        <time>2025-12-08T10:41:36.000Z</time>
      </trkpt>
      <trkpt lat="43.41912" lon="6.46135">
        <ele>116</ele>
        <time>2025-12-08T10:42:05.000Z</time>
      </trkpt>
      <trkpt lat="43.41906" lon="6.46145">
        <ele>115.4</ele>
        <time>2025-12-08T10:42:15.000Z</time>
      </trkpt>
      <trkpt lat="43.41902" lon="6.46156">
        <ele>114.6</ele>
        <time>2025-12-08T10:42:26.000Z</time>
      </trkpt>
      <trkpt lat="43.41897" lon="6.46167">
        <ele>114.2</ele>
        <time>2025-12-08T10:42:36.000Z</time>
      </trkpt>
      <trkpt lat="43.41889" lon="6.46175">
        <ele>113.4</ele>
        <time>2025-12-08T10:42:47.000Z</time>
      </trkpt>
      <trkpt lat="43.41882" lon="6.46183">
        <ele>112.1</ele>
        <time>2025-12-08T10:43:06.000Z</time>
      </trkpt>
      <trkpt lat="43.41876" lon="6.46191">
        <ele>112</ele>
        <time>2025-12-08T10:43:18.000Z</time>
      </trkpt>
      <trkpt lat="43.41871" lon="6.46203">
        <ele>111.1</ele>
        <time>2025-12-08T10:43:30.000Z</time>
      </trkpt>
      <trkpt lat="43.41866" lon="6.46214">
        <ele>110</ele>
        <time>2025-12-08T10:43:41.000Z</time>
      </trkpt>
      <trkpt lat="43.41863" lon="6.46227">
        <ele>109.8</ele>
        <time>2025-12-08T10:43:56.000Z</time>
      </trkpt>
      <trkpt lat="43.41858" lon="6.46239">
        <ele>109</ele>
        <time>2025-12-08T10:44:09.000Z</time>
      </trkpt>
      <trkpt lat="43.41853" lon="6.4625">
        <ele>108.5</ele>
        <time>2025-12-08T10:44:21.000Z</time>
      </trkpt>
      <trkpt lat="43.41847" lon="6.4626">
        <ele>108</ele>
        <time>2025-12-08T10:44:33.000Z</time>
      </trkpt>
      <trkpt lat="43.4184" lon="6.46269">
        <ele>107.5</ele>
        <time>2025-12-08T10:44:51.000Z</time>
      </trkpt>
      <trkpt lat="43.41834" lon="6.46279">
        <ele>106.5</ele>
        <time>2025-12-08T10:45:15.000Z</time>
      </trkpt>
      <trkpt lat="43.41828" lon="6.46289">
        <ele>105.9</ele>
        <time>2025-12-08T10:45:27.000Z</time>
      </trkpt>
      <trkpt lat="43.41822" lon="6.46299">
        <ele>104.7</ele>
        <time>2025-12-08T10:45:40.000Z</time>
      </trkpt>
      <trkpt lat="43.41817" lon="6.46309">
        <ele>103.6</ele>
        <time>2025-12-08T10:45:56.000Z</time>
      </trkpt>
      <trkpt lat="43.41811" lon="6.46319">
        <ele>102.5</ele>
        <time>2025-12-08T10:46:13.000Z</time>
      </trkpt>
      <trkpt lat="43.41804" lon="6.46328">
        <ele>101.6</ele>
        <time>2025-12-08T10:46:25.000Z</time>
      </trkpt>
      <trkpt lat="43.41797" lon="6.46337">
        <ele>100.9</ele>
        <time>2025-12-08T10:46:36.000Z</time>
      </trkpt>
      <trkpt lat="43.4179" lon="6.46345">
        <ele>100.2</ele>
        <time>2025-12-08T10:46:49.000Z</time>
      </trkpt>
      <trkpt lat="43.4178" lon="6.46346">
        <ele>98.8</ele>
        <time>2025-12-08T10:47:34.000Z</time>
      </trkpt>
      <trkpt lat="43.41779" lon="6.46358">
        <ele>98.4</ele>
        <time>2025-12-08T10:47:46.000Z</time>
      </trkpt>
      <trkpt lat="43.41786" lon="6.46367">
        <ele>98.4</ele>
        <time>2025-12-08T10:47:51.000Z</time>
      </trkpt>
      <trkpt lat="43.41779" lon="6.46378">
        <ele>98.3</ele>
        <time>2025-12-08T10:48:00.000Z</time>
      </trkpt>
      <trkpt lat="43.41769" lon="6.46385">
        <ele>98.1</ele>
        <time>2025-12-08T10:48:07.000Z</time>
      </trkpt>
      <trkpt lat="43.4176" lon="6.46389">
        <ele>98</ele>
        <time>2025-12-08T10:48:12.000Z</time>
      </trkpt>
      <trkpt lat="43.41755" lon="6.46401">
        <ele>97.8</ele>
        <time>2025-12-08T10:48:23.000Z</time>
      </trkpt>
      <trkpt lat="43.41749" lon="6.46412">
        <ele>97.2</ele>
        <time>2025-12-08T10:48:34.000Z</time>
      </trkpt>
      <trkpt lat="43.41748" lon="6.46425">
        <ele>96.8</ele>
        <time>2025-12-08T10:48:43.000Z</time>
      </trkpt>
      <trkpt lat="43.41746" lon="6.46437">
        <ele>96.4</ele>
        <time>2025-12-08T10:48:53.000Z</time>
      </trkpt>
      <trkpt lat="43.41744" lon="6.4645">
        <ele>96</ele>
        <time>2025-12-08T10:49:03.000Z</time>
      </trkpt>
      <trkpt lat="43.41744" lon="6.46463">
        <ele>95.6</ele>
        <time>2025-12-08T10:49:13.000Z</time>
      </trkpt>
      <trkpt lat="43.41743" lon="6.46477">
        <ele>95.2</ele>
        <time>2025-12-08T10:49:25.000Z</time>
      </trkpt>
      <trkpt lat="43.41742" lon="6.4649">
        <ele>94.9</ele>
        <time>2025-12-08T10:49:36.000Z</time>
      </trkpt>
      <trkpt lat="43.41743" lon="6.46503">
        <ele>94.3</ele>
        <time>2025-12-08T10:49:47.000Z</time>
      </trkpt>
      <trkpt lat="43.41747" lon="6.46514">
        <ele>93.5</ele>
        <time>2025-12-08T10:50:58.000Z</time>
      </trkpt>
      <trkpt lat="43.41755" lon="6.46522">
        <ele>92.2</ele>
        <time>2025-12-08T10:51:21.000Z</time>
      </trkpt>
      <trkpt lat="43.41763" lon="6.46529">
        <ele>91.8</ele>
        <time>2025-12-08T10:51:41.000Z</time>
      </trkpt>
      <trkpt lat="43.41772" lon="6.4653">
        <ele>91.8</ele>
        <time>2025-12-08T10:51:54.000Z</time>
      </trkpt>
      <trkpt lat="43.41781" lon="6.46532">
        <ele>92.2</ele>
        <time>2025-12-08T10:52:10.000Z</time>
      </trkpt>
      <trkpt lat="43.41787" lon="6.46542">
        <ele>93.3</ele>
        <time>2025-12-08T10:52:25.000Z</time>
      </trkpt>
      <trkpt lat="43.41794" lon="6.4655">
        <ele>92</ele>
        <time>2025-12-08T10:52:42.000Z</time>
      </trkpt>
      <trkpt lat="43.41794" lon="6.46563">
        <ele>89.3</ele>
        <time>2025-12-08T10:53:22.000Z</time>
      </trkpt>
      <trkpt lat="43.4179" lon="6.46575">
        <ele>87.1</ele>
        <time>2025-12-08T10:53:53.000Z</time>
      </trkpt>
      <trkpt lat="43.41794" lon="6.46586">
        <ele>84.8</ele>
        <time>2025-12-08T10:54:16.000Z</time>
      </trkpt>
      <trkpt lat="43.41803" lon="6.46583">
        <ele>82.4</ele>
        <time>2025-12-08T10:54:37.000Z</time>
      </trkpt>
      <trkpt lat="43.41812" lon="6.46588">
        <ele>79.7</ele>
        <time>2025-12-08T10:56:28.000Z</time>
      </trkpt>
      <trkpt lat="43.4182" lon="6.46591">
        <ele>78.2</ele>
        <time>2025-12-08T10:58:01.000Z</time>
      </trkpt>
      <trkpt lat="43.41828" lon="6.46598">
        <ele>78.4</ele>
        <time>2025-12-08T10:58:24.000Z</time>
      </trkpt>
      <trkpt lat="43.41837" lon="6.46603">
        <ele>79.5</ele>
        <time>2025-12-08T10:58:44.000Z</time>
      </trkpt>
      <trkpt lat="43.41844" lon="6.4661">
        <ele>81.2</ele>
        <time>2025-12-08T10:59:18.000Z</time>
      </trkpt>
      <trkpt lat="43.41852" lon="6.46617">
        <ele>82.4</ele>
        <time>2025-12-08T10:59:36.000Z</time>
      </trkpt>
      <trkpt lat="43.41861" lon="6.46617">
        <ele>84.5</ele>
        <time>2025-12-08T11:00:04.000Z</time>
      </trkpt>
      <trkpt lat="43.41869" lon="6.46624">
        <ele>85.7</ele>
        <time>2025-12-08T11:00:23.000Z</time>
      </trkpt>
      <trkpt lat="43.41877" lon="6.46631">
        <ele>86.7</ele>
        <time>2025-12-08T11:00:45.000Z</time>
      </trkpt>
      <trkpt lat="43.4188" lon="6.46642">
        <ele>86.9</ele>
        <time>2025-12-08T11:00:56.000Z</time>
      </trkpt>
      <trkpt lat="43.41877" lon="6.46655">
        <ele>86.8</ele>
        <time>2025-12-08T11:01:11.000Z</time>
      </trkpt>
      <trkpt lat="43.41873" lon="6.46666">
        <ele>86.2</ele>
        <time>2025-12-08T11:01:23.000Z</time>
      </trkpt>
      <trkpt lat="43.41869" lon="6.46678">
        <ele>84.9</ele>
        <time>2025-12-08T11:01:41.000Z</time>
      </trkpt>
      <trkpt lat="43.41865" lon="6.46689">
        <ele>84.3</ele>
        <time>2025-12-08T11:02:03.000Z</time>
      </trkpt>
      <trkpt lat="43.41861" lon="6.46702">
        <ele>83.6</ele>
        <time>2025-12-08T11:02:24.000Z</time>
      </trkpt>
      <trkpt lat="43.41858" lon="6.46714">
        <ele>82.2</ele>
        <time>2025-12-08T11:02:41.000Z</time>
      </trkpt>
      <trkpt lat="43.4186" lon="6.46727">
        <ele>79.7</ele>
        <time>2025-12-08T11:03:08.000Z</time>
      </trkpt>
      <trkpt lat="43.41865" lon="6.46738">
        <ele>78.3</ele>
        <time>2025-12-08T11:03:22.000Z</time>
      </trkpt>
      <trkpt lat="43.41866" lon="6.46751">
        <ele>76.4</ele>
        <time>2025-12-08T11:03:43.000Z</time>
      </trkpt>
      <trkpt lat="43.41869" lon="6.46763">
        <ele>74.1</ele>
        <time>2025-12-08T11:04:06.000Z</time>
      </trkpt>
      <trkpt lat="43.41869" lon="6.46776">
        <ele>72.9</ele>
        <time>2025-12-08T11:04:34.000Z</time>
      </trkpt>
      <trkpt lat="43.4187" lon="6.46788">
        <ele>72.2</ele>
        <time>2025-12-08T11:04:53.000Z</time>
      </trkpt>
      <trkpt lat="43.41871" lon="6.46801">
        <ele>72</ele>
        <time>2025-12-08T11:05:04.000Z</time>
      </trkpt>
      <trkpt lat="43.41872" lon="6.46813">
        <ele>71.9</ele>
        <time>2025-12-08T11:05:17.000Z</time>
      </trkpt>
      <trkpt lat="43.41873" lon="6.46826">
        <ele>71.6</ele>
        <time>2025-12-08T11:05:30.000Z</time>
      </trkpt>
      <trkpt lat="43.41879" lon="6.46836">
        <ele>70.4</ele>
        <time>2025-12-08T11:05:44.000Z</time>
      </trkpt>
      <trkpt lat="43.41889" lon="6.46837">
        <ele>68.1</ele>
        <time>2025-12-08T11:05:59.000Z</time>
      </trkpt>
      <trkpt lat="43.41896" lon="6.46846">
        <ele>65.2</ele>
        <time>2025-12-08T11:06:47.000Z</time>
      </trkpt>
      <trkpt lat="43.41901" lon="6.46856">
        <ele>62.9</ele>
        <time>2025-12-08T11:07:11.000Z</time>
      </trkpt>
      <trkpt lat="43.41904" lon="6.46869">
        <ele>61.1</ele>
        <time>2025-12-08T11:07:55.000Z</time>
      </trkpt>
      <trkpt lat="43.41908" lon="6.4688">
        <ele>59.6</ele>
        <time>2025-12-08T11:08:14.000Z</time>
      </trkpt>
      <trkpt lat="43.41911" lon="6.46892">
        <ele>58.5</ele>
        <time>2025-12-08T11:08:33.000Z</time>
      </trkpt>
      <trkpt lat="43.41916" lon="6.46904">
        <ele>58.1</ele>
        <time>2025-12-08T11:08:53.000Z</time>
      </trkpt>
      <trkpt lat="43.41921" lon="6.46915">
        <ele>57.7</ele>
        <time>2025-12-08T11:09:13.000Z</time>
      </trkpt>
      <trkpt lat="43.41918" lon="6.46927">
        <ele>57.4</ele>
        <time>2025-12-08T11:09:26.000Z</time>
      </trkpt>
      <trkpt lat="43.41914" lon="6.46939">
        <ele>56.2</ele>
        <time>2025-12-08T11:09:37.000Z</time>
      </trkpt>
      <trkpt lat="43.41911" lon="6.46952">
        <ele>54.9</ele>
        <time>2025-12-08T11:09:55.000Z</time>
      </trkpt>
      <trkpt lat="43.41914" lon="6.46964">
        <ele>54.7</ele>
        <time>2025-12-08T11:10:10.000Z</time>
      </trkpt>
      <trkpt lat="43.41921" lon="6.46971">
        <ele>54.9</ele>
        <time>2025-12-08T11:10:21.000Z</time>
      </trkpt>
      <trkpt lat="43.41925" lon="6.46983">
        <ele>55.5</ele>
        <time>2025-12-08T11:10:33.000Z</time>
      </trkpt>
      <trkpt lat="43.41922" lon="6.46995">
        <ele>55.6</ele>
        <time>2025-12-08T11:10:44.000Z</time>
      </trkpt>
      <trkpt lat="43.41921" lon="6.47007">
        <ele>55.3</ele>
        <time>2025-12-08T11:10:54.000Z</time>
      </trkpt>
      <trkpt lat="43.41924" lon="6.4702">
        <ele>55.2</ele>
        <time>2025-12-08T11:11:08.000Z</time>
      </trkpt>
      <trkpt lat="43.41928" lon="6.47032">
        <ele>55.1</ele>
        <time>2025-12-08T11:11:21.000Z</time>
      </trkpt>
      <trkpt lat="43.41929" lon="6.47045">
        <ele>54.8</ele>
        <time>2025-12-08T11:11:33.000Z</time>
      </trkpt>
      <trkpt lat="43.41933" lon="6.47057">
        <ele>54.4</ele>
        <time>2025-12-08T11:11:45.000Z</time>
      </trkpt>
      <trkpt lat="43.41942" lon="6.47056">
        <ele>54.4</ele>
        <time>2025-12-08T11:11:56.000Z</time>
      </trkpt>
      <trkpt lat="43.4195" lon="6.47049">
        <ele>54.7</ele>
        <time>2025-12-08T11:12:14.000Z</time>
      </trkpt>
      <trkpt lat="43.4196" lon="6.47049">
        <ele>55.3</ele>
        <time>2025-12-08T11:12:26.000Z</time>
      </trkpt>
      <trkpt lat="43.41968" lon="6.47053">
        <ele>55.6</ele>
        <time>2025-12-08T11:12:36.000Z</time>
      </trkpt>
      <trkpt lat="43.41973" lon="6.47065">
        <ele>55.7</ele>
        <time>2025-12-08T11:12:47.000Z</time>
      </trkpt>
      <trkpt lat="43.41977" lon="6.47076">
        <ele>55.7</ele>
        <time>2025-12-08T11:13:00.000Z</time>
      </trkpt>
      <trkpt lat="43.41978" lon="6.47089">
        <ele>55.8</ele>
        <time>2025-12-08T11:13:10.000Z</time>
      </trkpt>
      <trkpt lat="43.41982" lon="6.471">
        <ele>56.3</ele>
        <time>2025-12-08T11:13:21.000Z</time>
      </trkpt>
      <trkpt lat="43.4199" lon="6.47106">
        <ele>56.6</ele>
        <time>2025-12-08T11:13:33.000Z</time>
      </trkpt>
      <trkpt lat="43.41998" lon="6.47115">
        <ele>57.8</ele>
        <time>2025-12-08T11:13:47.000Z</time>
      </trkpt>
      <trkpt lat="43.42003" lon="6.47125">
        <ele>58.6</ele>
        <time>2025-12-08T11:14:49.000Z</time>
      </trkpt>
      <trkpt lat="43.42006" lon="6.47137">
        <ele>59.1</ele>
        <time>2025-12-08T11:15:06.000Z</time>
      </trkpt>
      <trkpt lat="43.41999" lon="6.47145">
        <ele>59.4</ele>
        <time>2025-12-08T11:15:16.000Z</time>
      </trkpt>
      <trkpt lat="43.41993" lon="6.47155">
        <ele>59.1</ele>
        <time>2025-12-08T11:15:27.000Z</time>
      </trkpt>
      <trkpt lat="43.41985" lon="6.47164">
        <ele>58.1</ele>
        <time>2025-12-08T11:15:57.000Z</time>
      </trkpt>
      <trkpt lat="43.41978" lon="6.47172">
        <ele>57.6</ele>
        <time>2025-12-08T11:16:09.000Z</time>
      </trkpt>
      <trkpt lat="43.41971" lon="6.4718">
        <ele>57.2</ele>
        <time>2025-12-08T11:16:20.000Z</time>
      </trkpt>
      <trkpt lat="43.41962" lon="6.47187">
        <ele>57</ele>
        <time>2025-12-08T11:16:31.000Z</time>
      </trkpt>
      <trkpt lat="43.41954" lon="6.47192">
        <ele>56.8</ele>
        <time>2025-12-08T11:16:42.000Z</time>
      </trkpt>
      <trkpt lat="43.41946" lon="6.47198">
        <ele>56.6</ele>
        <time>2025-12-08T11:16:57.000Z</time>
      </trkpt>
      <trkpt lat="43.41939" lon="6.47207">
        <ele>56.5</ele>
        <time>2025-12-08T11:17:42.000Z</time>
      </trkpt>
      <trkpt lat="43.4193" lon="6.47209">
        <ele>56.3</ele>
        <time>2025-12-08T11:18:10.000Z</time>
      </trkpt>
      <trkpt lat="43.41921" lon="6.47208">
        <ele>56.1</ele>
        <time>2025-12-08T11:18:32.000Z</time>
      </trkpt>
      <trkpt lat="43.41912" lon="6.47207">
        <ele>55.9</ele>
        <time>2025-12-08T11:18:42.000Z</time>
      </trkpt>
      <trkpt lat="43.41903" lon="6.47211">
        <ele>55.5</ele>
        <time>2025-12-08T11:18:50.000Z</time>
      </trkpt>
      <trkpt lat="43.41895" lon="6.47216">
        <ele>55.1</ele>
        <time>2025-12-08T11:18:59.000Z</time>
      </trkpt>
      <trkpt lat="43.41887" lon="6.47224">
        <ele>54.7</ele>
        <time>2025-12-08T11:19:09.000Z</time>
      </trkpt>
      <trkpt lat="43.41878" lon="6.4723">
        <ele>54.3</ele>
        <time>2025-12-08T11:19:18.000Z</time>
      </trkpt>
      <trkpt lat="43.4187" lon="6.47236">
        <ele>53.8</ele>
        <time>2025-12-08T11:19:27.000Z</time>
      </trkpt>
      <trkpt lat="43.41861" lon="6.47243">
        <ele>53.5</ele>
        <time>2025-12-08T11:19:37.000Z</time>
      </trkpt>
      <trkpt lat="43.41853" lon="6.47251">
        <ele>52.7</ele>
        <time>2025-12-08T11:20:07.000Z</time>
      </trkpt>
      <trkpt lat="43.41845" lon="6.47258">
        <ele>52.6</ele>
        <time>2025-12-08T11:20:18.000Z</time>
      </trkpt>
      <trkpt lat="43.41836" lon="6.47264">
        <ele>52.2</ele>
        <time>2025-12-08T11:20:33.000Z</time>
      </trkpt>
      <trkpt lat="43.41828" lon="6.47271">
        <ele>52.2</ele>
        <time>2025-12-08T11:20:42.000Z</time>
      </trkpt>
      <trkpt lat="43.41821" lon="6.47278">
        <ele>52.2</ele>
        <time>2025-12-08T11:20:56.000Z</time>
      </trkpt>
      <trkpt lat="43.41813" lon="6.47287">
        <ele>52.1</ele>
        <time>2025-12-08T11:21:05.000Z</time>
      </trkpt>
      <trkpt lat="43.41805" lon="6.47292">
        <ele>51.9</ele>
        <time>2025-12-08T11:21:13.000Z</time>
      </trkpt>
      <trkpt lat="43.41796" lon="6.47298">
        <ele>51.7</ele>
        <time>2025-12-08T11:21:21.000Z</time>
      </trkpt>
      <trkpt lat="43.41787" lon="6.47302">
        <ele>51.6</ele>
        <time>2025-12-08T11:21:30.000Z</time>
      </trkpt>
      <trkpt lat="43.41778" lon="6.47306">
        <ele>51.7</ele>
        <time>2025-12-08T11:21:39.000Z</time>
      </trkpt>
      <trkpt lat="43.41769" lon="6.4731">
        <ele>51.6</ele>
        <time>2025-12-08T11:21:48.000Z</time>
      </trkpt>
      <trkpt lat="43.41759" lon="6.47314">
        <ele>51.5</ele>
        <time>2025-12-08T11:21:57.000Z</time>
      </trkpt>
      <trkpt lat="43.4175" lon="6.47316">
        <ele>51.5</ele>
        <time>2025-12-08T11:22:07.000Z</time>
      </trkpt>
      <trkpt lat="43.4174" lon="6.47318">
        <ele>51.4</ele>
        <time>2025-12-08T11:22:17.000Z</time>
      </trkpt>
      <trkpt lat="43.4173" lon="6.47319">
        <ele>51.5</ele>
        <time>2025-12-08T11:22:26.000Z</time>
      </trkpt>
      <trkpt lat="43.41721" lon="6.4732">
        <ele>51.1</ele>
        <time>2025-12-08T11:22:36.000Z</time>
      </trkpt>
      <trkpt lat="43.41712" lon="6.47322">
        <ele>50.7</ele>
        <time>2025-12-08T11:22:49.000Z</time>
      </trkpt>
      <trkpt lat="43.41703" lon="6.47324">
        <ele>50.5</ele>
        <time>2025-12-08T11:22:59.000Z</time>
      </trkpt>
      <trkpt lat="43.41693" lon="6.47326">
        <ele>50.2</ele>
        <time>2025-12-08T11:23:08.000Z</time>
      </trkpt>
      <trkpt lat="43.41684" lon="6.47329">
        <ele>49.8</ele>
        <time>2025-12-08T11:23:17.000Z</time>
      </trkpt>
      <trkpt lat="43.41676" lon="6.47334">
        <ele>49.5</ele>
        <time>2025-12-08T11:23:26.000Z</time>
      </trkpt>
      <trkpt lat="43.41667" lon="6.47337">
        <ele>49.4</ele>
        <time>2025-12-08T11:23:35.000Z</time>
      </trkpt>
      <trkpt lat="43.41659" lon="6.47343">
        <ele>48.9</ele>
        <time>2025-12-08T11:23:46.000Z</time>
      </trkpt>
      <trkpt lat="43.4165" lon="6.47347">
        <ele>48.6</ele>
        <time>2025-12-08T11:23:55.000Z</time>
      </trkpt>
      <trkpt lat="43.4164" lon="6.4735">
        <ele>48.4</ele>
        <time>2025-12-08T11:24:04.000Z</time>
      </trkpt>
      <trkpt lat="43.41632" lon="6.47354">
        <ele>48.2</ele>
        <time>2025-12-08T11:24:12.000Z</time>
      </trkpt>
      <trkpt lat="43.41623" lon="6.4736">
        <ele>47.9</ele>
        <time>2025-12-08T11:24:26.000Z</time>
      </trkpt>
      <trkpt lat="43.41614" lon="6.47363">
        <ele>47.8</ele>
        <time>2025-12-08T11:24:35.000Z</time>
      </trkpt>
      <trkpt lat="43.41605" lon="6.47369">
        <ele>47.8</ele>
        <time>2025-12-08T11:24:44.000Z</time>
      </trkpt>
      <trkpt lat="43.41596" lon="6.47373">
        <ele>47.6</ele>
        <time>2025-12-08T11:24:55.000Z</time>
      </trkpt>
      <trkpt lat="43.41587" lon="6.47374">
        <ele>47.4</ele>
        <time>2025-12-08T11:25:03.000Z</time>
      </trkpt>
      <trkpt lat="43.41578" lon="6.47377">
        <ele>46.8</ele>
        <time>2025-12-08T11:25:12.000Z</time>
      </trkpt>
      <trkpt lat="43.41569" lon="6.47378">
        <ele>46.6</ele>
        <time>2025-12-08T11:25:29.000Z</time>
      </trkpt>
      <trkpt lat="43.41564" lon="6.47368">
        <ele>46.2</ele>
        <time>2025-12-08T11:27:20.000Z</time>
      </trkpt>
      <trkpt lat="43.41564" lon="6.47356">
        <ele>45.8</ele>
        <time>2025-12-08T11:27:58.000Z</time>
      </trkpt>
      <trkpt lat="43.4157" lon="6.47346">
        <ele>45.1</ele>
        <time>2025-12-08T11:28:17.000Z</time>
      </trkpt>
      <trkpt lat="43.41576" lon="6.47335">
        <ele>44.4</ele>
        <time>2025-12-08T11:28:56.000Z</time>
      </trkpt>
      <trkpt lat="43.41579" lon="6.47324">
        <ele>47.6</ele>
        <time>2025-12-08T11:29:20.000Z</time>
      </trkpt>
      <trkpt lat="43.41588" lon="6.47318">
        <ele>47.2</ele>
        <time>2025-12-08T11:29:36.000Z</time>
      </trkpt>
      <trkpt lat="43.41597" lon="6.47318">
        <ele>48.2</ele>
        <time>2025-12-08T11:29:53.000Z</time>
      </trkpt>
      <trkpt lat="43.41599" lon="6.47305">
        <ele>51.1</ele>
        <time>2025-12-08T11:30:27.000Z</time>
      </trkpt>
      <trkpt lat="43.41603" lon="6.47294">
        <ele>53.1</ele>
        <time>2025-12-08T11:30:52.000Z</time>
      </trkpt>
      <trkpt lat="43.41607" lon="6.47281">
        <ele>53.2</ele>
        <time>2025-12-08T11:31:05.000Z</time>
      </trkpt>
      <trkpt lat="43.41608" lon="6.47269">
        <ele>54.1</ele>
        <time>2025-12-08T11:31:19.000Z</time>
      </trkpt>
      <trkpt lat="43.41604" lon="6.47257">
        <ele>55.3</ele>
        <time>2025-12-08T11:31:35.000Z</time>
      </trkpt>
      <trkpt lat="43.41598" lon="6.47247">
        <ele>55.8</ele>
        <time>2025-12-08T11:33:08.000Z</time>
      </trkpt>
      <trkpt lat="43.41592" lon="6.47239">
        <ele>55.8</ele>
        <time>2025-12-08T11:33:24.000Z</time>
      </trkpt>
      <trkpt lat="43.41585" lon="6.47229">
        <ele>56.1</ele>
        <time>2025-12-08T11:33:34.000Z</time>
      </trkpt>
      <trkpt lat="43.41577" lon="6.47222">
        <ele>56.8</ele>
        <time>2025-12-08T11:33:46.000Z</time>
      </trkpt>
      <trkpt lat="43.4157" lon="6.47214">
        <ele>57.7</ele>
        <time>2025-12-08T11:34:01.000Z</time>
      </trkpt>
      <trkpt lat="43.4156" lon="6.4721">
        <ele>58.4</ele>
        <time>2025-12-08T11:34:15.000Z</time>
      </trkpt>
      <trkpt lat="43.41551" lon="6.47208">
        <ele>59.1</ele>
        <time>2025-12-08T11:34:28.000Z</time>
      </trkpt>
      <trkpt lat="43.41542" lon="6.4721">
        <ele>59.6</ele>
        <time>2025-12-08T11:34:46.000Z</time>
      </trkpt>
      <trkpt lat="43.41533" lon="6.47205">
        <ele>59.7</ele>
        <time>2025-12-08T11:35:03.000Z</time>
      </trkpt>
      <trkpt lat="43.41529" lon="6.47194">
        <ele>59.7</ele>
        <time>2025-12-08T11:35:14.000Z</time>
      </trkpt>
      <trkpt lat="43.41524" lon="6.47182">
        <ele>59.5</ele>
        <time>2025-12-08T11:35:25.000Z</time>
      </trkpt>
      <trkpt lat="43.41522" lon="6.4717">
        <ele>60.8</ele>
        <time>2025-12-08T11:35:40.000Z</time>
      </trkpt>
      <trkpt lat="43.41528" lon="6.47159">
        <ele>61.4</ele>
        <time>2025-12-08T11:35:50.000Z</time>
      </trkpt>
      <trkpt lat="43.41532" lon="6.47148">
        <ele>61.9</ele>
        <time>2025-12-08T11:36:00.000Z</time>
      </trkpt>
      <trkpt lat="43.41539" lon="6.4714">
        <ele>61.5</ele>
        <time>2025-12-08T11:36:10.000Z</time>
      </trkpt>
      <trkpt lat="43.41542" lon="6.47128">
        <ele>62</ele>
        <time>2025-12-08T11:36:23.000Z</time>
      </trkpt>
      <trkpt lat="43.41544" lon="6.47115">
        <ele>63.1</ele>
        <time>2025-12-08T11:36:53.000Z</time>
      </trkpt>
      <trkpt lat="43.41551" lon="6.47105">
        <ele>63.1</ele>
        <time>2025-12-08T11:37:06.000Z</time>
      </trkpt>
      <trkpt lat="43.41553" lon="6.47092">
        <ele>63.3</ele>
        <time>2025-12-08T11:37:17.000Z</time>
      </trkpt>
      <trkpt lat="43.41555" lon="6.4708">
        <ele>63.6</ele>
        <time>2025-12-08T11:37:27.000Z</time>
      </trkpt>
      <trkpt lat="43.4156" lon="6.47069">
        <ele>64</ele>
        <time>2025-12-08T11:37:42.000Z</time>
      </trkpt>
      <trkpt lat="43.41564" lon="6.47058">
        <ele>64</ele>
        <time>2025-12-08T11:37:51.000Z</time>
      </trkpt>
      <trkpt lat="43.4157" lon="6.47048">
        <ele>64.3</ele>
        <time>2025-12-08T11:38:01.000Z</time>
      </trkpt>
      <trkpt lat="43.41576" lon="6.47038">
        <ele>64.8</ele>
        <time>2025-12-08T11:38:12.000Z</time>
      </trkpt>
      <trkpt lat="43.41581" lon="6.47027">
        <ele>65.2</ele>
        <time>2025-12-08T11:38:23.000Z</time>
      </trkpt>
      <trkpt lat="43.41585" lon="6.47016">
        <ele>65.4</ele>
        <time>2025-12-08T11:38:34.000Z</time>
      </trkpt>
      <trkpt lat="43.41587" lon="6.47003">
        <ele>65.5</ele>
        <time>2025-12-08T11:38:44.000Z</time>
      </trkpt>
      <trkpt lat="43.41588" lon="6.4699">
        <ele>65.9</ele>
        <time>2025-12-08T11:38:55.000Z</time>
      </trkpt>
      <trkpt lat="43.41586" lon="6.46978">
        <ele>66.3</ele>
        <time>2025-12-08T11:39:05.000Z</time>
      </trkpt>
      <trkpt lat="43.41583" lon="6.46966">
        <ele>66.7</ele>
        <time>2025-12-08T11:39:15.000Z</time>
      </trkpt>
      <trkpt lat="43.41581" lon="6.46954">
        <ele>66.6</ele>
        <time>2025-12-08T11:39:56.000Z</time>
      </trkpt>
      <trkpt lat="43.41581" lon="6.4694">
        <ele>66.6</ele>
        <time>2025-12-08T11:40:13.000Z</time>
      </trkpt>
      <trkpt lat="43.41581" lon="6.46927">
        <ele>67</ele>
        <time>2025-12-08T11:40:23.000Z</time>
      </trkpt>
      <trkpt lat="43.41575" lon="6.46918">
        <ele>67.2</ele>
        <time>2025-12-08T11:40:33.000Z</time>
      </trkpt>
      <trkpt lat="43.41573" lon="6.46906">
        <ele>67.4</ele>
        <time>2025-12-08T11:40:44.000Z</time>
      </trkpt>
      <trkpt lat="43.41567" lon="6.46896">
        <ele>67.8</ele>
        <time>2025-12-08T11:40:58.000Z</time>
      </trkpt>
      <trkpt lat="43.41562" lon="6.46885">
        <ele>67.6</ele>
        <time>2025-12-08T11:41:15.000Z</time>
      </trkpt>
      <trkpt lat="43.41558" lon="6.46873">
        <ele>67.5</ele>
        <time>2025-12-08T11:41:29.000Z</time>
      </trkpt>
      <trkpt lat="43.41561" lon="6.46861">
        <ele>67.6</ele>
        <time>2025-12-08T11:41:40.000Z</time>
      </trkpt>
      <trkpt lat="43.41564" lon="6.46849">
        <ele>68.7</ele>
        <time>2025-12-08T11:41:53.000Z</time>
      </trkpt>
      <trkpt lat="43.41565" lon="6.46835">
        <ele>68.8</ele>
        <time>2025-12-08T11:42:08.000Z</time>
      </trkpt>
      <trkpt lat="43.41565" lon="6.46822">
        <ele>68.1</ele>
        <time>2025-12-08T11:42:20.000Z</time>
      </trkpt>
      <trkpt lat="43.41566" lon="6.46808">
        <ele>68.7</ele>
        <time>2025-12-08T11:42:33.000Z</time>
      </trkpt>
      <trkpt lat="43.41569" lon="6.46796">
        <ele>69.3</ele>
        <time>2025-12-08T11:42:44.000Z</time>
      </trkpt>
      <trkpt lat="43.41573" lon="6.46785">
        <ele>69.9</ele>
        <time>2025-12-08T11:43:02.000Z</time>
      </trkpt>
      <trkpt lat="43.41576" lon="6.46773">
        <ele>70.1</ele>
        <time>2025-12-08T11:43:13.000Z</time>
      </trkpt>
      <trkpt lat="43.41582" lon="6.46762">
        <ele>70.4</ele>
        <time>2025-12-08T11:43:23.000Z</time>
      </trkpt>
      <trkpt lat="43.41583" lon="6.4675">
        <ele>71.1</ele>
        <time>2025-12-08T11:43:36.000Z</time>
      </trkpt>
      <trkpt lat="43.41583" lon="6.46737">
        <ele>71.6</ele>
        <time>2025-12-08T11:43:48.000Z</time>
      </trkpt>
      <trkpt lat="43.41583" lon="6.46724">
        <ele>72.1</ele>
        <time>2025-12-08T11:43:59.000Z</time>
      </trkpt>
      <trkpt lat="43.41587" lon="6.46713">
        <ele>72.8</ele>
        <time>2025-12-08T11:44:09.000Z</time>
      </trkpt>
      <trkpt lat="43.41593" lon="6.46703">
        <ele>74.3</ele>
        <time>2025-12-08T11:44:23.000Z</time>
      </trkpt>
      <trkpt lat="43.41598" lon="6.46693">
        <ele>75.8</ele>
        <time>2025-12-08T11:44:36.000Z</time>
      </trkpt>
      <trkpt lat="43.41603" lon="6.46682">
        <ele>76.6</ele>
        <time>2025-12-08T11:44:48.000Z</time>
      </trkpt>
      <trkpt lat="43.41607" lon="6.46671">
        <ele>76.6</ele>
        <time>2025-12-08T11:44:59.000Z</time>
      </trkpt>
      <trkpt lat="43.41613" lon="6.4666">
        <ele>76.8</ele>
        <time>2025-12-08T11:45:10.000Z</time>
      </trkpt>
      <trkpt lat="43.41617" lon="6.46649">
        <ele>77.5</ele>
        <time>2025-12-08T11:45:23.000Z</time>
      </trkpt>
      <trkpt lat="43.41617" lon="6.46636">
        <ele>78.3</ele>
        <time>2025-12-08T11:45:38.000Z</time>
      </trkpt>
      <trkpt lat="43.41617" lon="6.46623">
        <ele>79</ele>
        <time>2025-12-08T11:45:51.000Z</time>
      </trkpt>
      <trkpt lat="43.41619" lon="6.46611">
        <ele>79.7</ele>
        <time>2025-12-08T11:46:03.000Z</time>
      </trkpt>
      <trkpt lat="43.41614" lon="6.466">
        <ele>80</ele>
        <time>2025-12-08T11:46:13.000Z</time>
      </trkpt>
      <trkpt lat="43.41612" lon="6.46588">
        <ele>80.4</ele>
        <time>2025-12-08T11:46:24.000Z</time>
      </trkpt>
      <trkpt lat="43.41614" lon="6.46575">
        <ele>80.6</ele>
        <time>2025-12-08T11:46:35.000Z</time>
      </trkpt>
      <trkpt lat="43.41616" lon="6.46563">
        <ele>80.6</ele>
        <time>2025-12-08T11:46:46.000Z</time>
      </trkpt>
      <trkpt lat="43.41618" lon="6.46551">
        <ele>81.2</ele>
        <time>2025-12-08T11:46:57.000Z</time>
      </trkpt>
      <trkpt lat="43.41619" lon="6.46538">
        <ele>81.8</ele>
        <time>2025-12-08T11:47:07.000Z</time>
      </trkpt>
      <trkpt lat="43.41619" lon="6.46525">
        <ele>82.3</ele>
        <time>2025-12-08T11:47:18.000Z</time>
      </trkpt>
      <trkpt lat="43.41619" lon="6.46512">
        <ele>82.9</ele>
        <time>2025-12-08T11:47:29.000Z</time>
      </trkpt>
      <trkpt lat="43.41614" lon="6.465">
        <ele>83.7</ele>
        <time>2025-12-08T11:47:40.000Z</time>
      </trkpt>
      <trkpt lat="43.41607" lon="6.46492">
        <ele>83.9</ele>
        <time>2025-12-08T11:47:51.000Z</time>
      </trkpt>
      <trkpt lat="43.41601" lon="6.46482">
        <ele>84.4</ele>
        <time>2025-12-08T11:48:02.000Z</time>
      </trkpt>
      <trkpt lat="43.416" lon="6.46469">
        <ele>85.3</ele>
        <time>2025-12-08T11:48:14.000Z</time>
      </trkpt>
      <trkpt lat="43.41605" lon="6.46458">
        <ele>85.8</ele>
        <time>2025-12-08T11:48:26.000Z</time>
      </trkpt>
      <trkpt lat="43.41608" lon="6.46446">
        <ele>86.8</ele>
        <time>2025-12-08T11:48:42.000Z</time>
      </trkpt>
      <trkpt lat="43.41609" lon="6.46433">
        <ele>88</ele>
        <time>2025-12-08T11:49:09.000Z</time>
      </trkpt>
      <trkpt lat="43.41607" lon="6.4642">
        <ele>88.5</ele>
        <time>2025-12-08T11:49:21.000Z</time>
      </trkpt>
      <trkpt lat="43.41606" lon="6.46408">
        <ele>89.6</ele>
        <time>2025-12-08T11:49:36.000Z</time>
      </trkpt>
      <trkpt lat="43.41605" lon="6.46396">
        <ele>90.8</ele>
        <time>2025-12-08T11:49:48.000Z</time>
      </trkpt>
      <trkpt lat="43.41606" lon="6.46383">
        <ele>91.9</ele>
        <time>2025-12-08T11:50:02.000Z</time>
      </trkpt>
      <trkpt lat="43.41608" lon="6.4637">
        <ele>92.9</ele>
        <time>2025-12-08T11:50:17.000Z</time>
      </trkpt>
      <trkpt lat="43.4161" lon="6.46358">
        <ele>93.6</ele>
        <time>2025-12-08T11:50:39.000Z</time>
      </trkpt>
      <trkpt lat="43.41613" lon="6.46346">
        <ele>94.6</ele>
        <time>2025-12-08T11:50:53.000Z</time>
      </trkpt>
      <trkpt lat="43.41616" lon="6.46334">
        <ele>95.2</ele>
        <time>2025-12-08T11:51:23.000Z</time>
      </trkpt>
      <trkpt lat="43.41617" lon="6.46321">
        <ele>95.8</ele>
        <time>2025-12-08T11:51:43.000Z</time>
      </trkpt>
      <trkpt lat="43.4162" lon="6.46309">
        <ele>95.9</ele>
        <time>2025-12-08T11:51:54.000Z</time>
      </trkpt>
      <trkpt lat="43.41622" lon="6.46296">
        <ele>96.4</ele>
        <time>2025-12-08T11:52:06.000Z</time>
      </trkpt>
      <trkpt lat="43.41622" lon="6.46283">
        <ele>97.1</ele>
        <time>2025-12-08T11:52:17.000Z</time>
      </trkpt>
      <trkpt lat="43.41621" lon="6.4627">
        <ele>97.8</ele>
        <time>2025-12-08T11:52:29.000Z</time>
      </trkpt>
      <trkpt lat="43.41619" lon="6.46258">
        <ele>98.5</ele>
        <time>2025-12-08T11:52:40.000Z</time>
      </trkpt>
      <trkpt lat="43.41619" lon="6.46245">
        <ele>99.1</ele>
        <time>2025-12-08T11:52:51.000Z</time>
      </trkpt>
      <trkpt lat="43.41616" lon="6.46231">
        <ele>99.7</ele>
        <time>2025-12-08T11:53:04.000Z</time>
      </trkpt>
      <trkpt lat="43.4161" lon="6.46222">
        <ele>100.4</ele>
        <time>2025-12-08T11:53:16.000Z</time>
      </trkpt>
      <trkpt lat="43.41603" lon="6.46212">
        <ele>101.8</ele>
        <time>2025-12-08T11:53:30.000Z</time>
      </trkpt>
      <trkpt lat="43.41596" lon="6.46204">
        <ele>102.9</ele>
        <time>2025-12-08T11:53:43.000Z</time>
      </trkpt>
      <trkpt lat="43.41589" lon="6.46195">
        <ele>103.6</ele>
        <time>2025-12-08T11:55:48.000Z</time>
      </trkpt>
      <trkpt lat="43.41584" lon="6.46184">
        <ele>104.9</ele>
        <time>2025-12-08T11:56:03.000Z</time>
      </trkpt>
      <trkpt lat="43.41584" lon="6.46172">
        <ele>106.2</ele>
        <time>2025-12-08T11:56:15.000Z</time>
      </trkpt>
      <trkpt lat="43.41586" lon="6.46159">
        <ele>107</ele>
        <time>2025-12-08T11:56:28.000Z</time>
      </trkpt>
      <trkpt lat="43.41589" lon="6.46146">
        <ele>107.7</ele>
        <time>2025-12-08T11:56:41.000Z</time>
      </trkpt>
      <trkpt lat="43.41593" lon="6.46135">
        <ele>108</ele>
        <time>2025-12-08T11:57:07.000Z</time>
      </trkpt>
      <trkpt lat="43.41597" lon="6.46124">
        <ele>109.9</ele>
        <time>2025-12-08T11:57:24.000Z</time>
      </trkpt>
      <trkpt lat="43.41597" lon="6.46111">
        <ele>111.7</ele>
        <time>2025-12-08T11:57:43.000Z</time>
      </trkpt>
      <trkpt lat="43.41595" lon="6.46099">
        <ele>113.8</ele>
        <time>2025-12-08T11:58:11.000Z</time>
      </trkpt>
      <trkpt lat="43.41588" lon="6.46091">
        <ele>116</ele>
        <time>2025-12-08T11:58:41.000Z</time>
      </trkpt>
      <trkpt lat="43.41581" lon="6.461">
        <ele>116.1</ele>
        <time>2025-12-08T12:04:01.000Z</time>
      </trkpt>
      <trkpt lat="43.41575" lon="6.4611">
        <ele>116</ele>
        <time>2025-12-08T12:04:16.000Z</time>
      </trkpt>
      <trkpt lat="43.4157" lon="6.46121">
        <ele>115.8</ele>
        <time>2025-12-08T12:04:27.000Z</time>
      </trkpt>
      <trkpt lat="43.41563" lon="6.46129">
        <ele>115.8</ele>
        <time>2025-12-08T12:04:40.000Z</time>
      </trkpt>
      <trkpt lat="43.41557" lon="6.46139">
        <ele>116.5</ele>
        <time>2025-12-08T12:04:54.000Z</time>
      </trkpt>
      <trkpt lat="43.4155" lon="6.46147">
        <ele>117.5</ele>
        <time>2025-12-08T12:05:07.000Z</time>
      </trkpt>
      <trkpt lat="43.41542" lon="6.46154">
        <ele>118.1</ele>
        <time>2025-12-08T12:05:18.000Z</time>
      </trkpt>
      <trkpt lat="43.41535" lon="6.46162">
        <ele>118.3</ele>
        <time>2025-12-08T12:06:21.000Z</time>
      </trkpt>
      <trkpt lat="43.41527" lon="6.4617">
        <ele>118.8</ele>
        <time>2025-12-08T12:06:33.000Z</time>
      </trkpt>
      <trkpt lat="43.41519" lon="6.46172">
        <ele>119.3</ele>
        <time>2025-12-08T12:06:44.000Z</time>
      </trkpt>
      <trkpt lat="43.41509" lon="6.46172">
        <ele>120.1</ele>
        <time>2025-12-08T12:07:02.000Z</time>
      </trkpt>
      <trkpt lat="43.41502" lon="6.4618">
        <ele>120.5</ele>
        <time>2025-12-08T12:07:35.000Z</time>
      </trkpt>
      <trkpt lat="43.41493" lon="6.46186">
        <ele>121.1</ele>
        <time>2025-12-08T12:07:47.000Z</time>
      </trkpt>
      <trkpt lat="43.41485" lon="6.46192">
        <ele>122.3</ele>
        <time>2025-12-08T12:07:59.000Z</time>
      </trkpt>
      <trkpt lat="43.41475" lon="6.46196">
        <ele>122.2</ele>
        <time>2025-12-08T12:08:10.000Z</time>
      </trkpt>
      <trkpt lat="43.41466" lon="6.462">
        <ele>122.3</ele>
        <time>2025-12-08T12:08:21.000Z</time>
      </trkpt>
      <trkpt lat="43.41458" lon="6.46205">
        <ele>122.5</ele>
        <time>2025-12-08T12:08:31.000Z</time>
      </trkpt>
      <trkpt lat="43.41448" lon="6.46209">
        <ele>121.9</ele>
        <time>2025-12-08T12:08:41.000Z</time>
      </trkpt>
      <trkpt lat="43.4144" lon="6.46214">
        <ele>121.3</ele>
        <time>2025-12-08T12:08:50.000Z</time>
      </trkpt>
      <trkpt lat="43.4143" lon="6.46218">
        <ele>121.1</ele>
        <time>2025-12-08T12:09:00.000Z</time>
      </trkpt>
      <trkpt lat="43.41421" lon="6.46215">
        <ele>120.5</ele>
        <time>2025-12-08T12:09:10.000Z</time>
      </trkpt>
      <trkpt lat="43.41413" lon="6.46208">
        <ele>119.6</ele>
        <time>2025-12-08T12:09:22.000Z</time>
      </trkpt>
      <trkpt lat="43.41404" lon="6.46204">
        <ele>118.8</ele>
        <time>2025-12-08T12:09:37.000Z</time>
      </trkpt>
      <trkpt lat="43.41397" lon="6.46194">
        <ele>117.9</ele>
        <time>2025-12-08T12:09:49.000Z</time>
      </trkpt>
      <trkpt lat="43.41406" lon="6.46198">
        <ele>123</ele>
        <time>2025-12-08T13:12:38.000Z</time>
      </trkpt>
      <trkpt lat="43.41415" lon="6.46199">
        <ele>123.9</ele>
        <time>2025-12-08T13:12:55.000Z</time>
      </trkpt>
      <trkpt lat="43.41421" lon="6.46188">
        <ele>125.8</ele>
        <time>2025-12-08T13:13:59.000Z</time>
      </trkpt>
      <trkpt lat="43.41414" lon="6.46179">
        <ele>126.2</ele>
        <time>2025-12-08T13:14:26.000Z</time>
      </trkpt>
      <trkpt lat="43.41408" lon="6.46169">
        <ele>126.7</ele>
        <time>2025-12-08T13:14:36.000Z</time>
      </trkpt>
      <trkpt lat="43.41404" lon="6.46157">
        <ele>127.2</ele>
        <time>2025-12-08T13:14:48.000Z</time>
      </trkpt>
      <trkpt lat="43.41405" lon="6.46144">
        <ele>127.8</ele>
        <time>2025-12-08T13:15:05.000Z</time>
      </trkpt>
      <trkpt lat="43.41405" lon="6.46132">
        <ele>127.7</ele>
        <time>2025-12-08T13:15:32.000Z</time>
      </trkpt>
      <trkpt lat="43.41404" lon="6.46119">
        <ele>127.5</ele>
        <time>2025-12-08T13:15:43.000Z</time>
      </trkpt>
      <trkpt lat="43.41401" lon="6.46107">
        <ele>127.6</ele>
        <time>2025-12-08T13:15:53.000Z</time>
      </trkpt>
      <trkpt lat="43.414" lon="6.46095">
        <ele>127.7</ele>
        <time>2025-12-08T13:16:04.000Z</time>
      </trkpt>
      <trkpt lat="43.41398" lon="6.46081">
        <ele>128</ele>
        <time>2025-12-08T13:16:14.000Z</time>
      </trkpt>
      <trkpt lat="43.41397" lon="6.46069">
        <ele>128.2</ele>
        <time>2025-12-08T13:16:24.000Z</time>
      </trkpt>
      <trkpt lat="43.41398" lon="6.46056">
        <ele>127.6</ele>
        <time>2025-12-08T13:16:34.000Z</time>
      </trkpt>
      <trkpt lat="43.41396" lon="6.46043">
        <ele>126.5</ele>
        <time>2025-12-08T13:17:05.000Z</time>
      </trkpt>
      <trkpt lat="43.41391" lon="6.46032">
        <ele>126</ele>
        <time>2025-12-08T13:17:29.000Z</time>
      </trkpt>
      <trkpt lat="43.41387" lon="6.4602">
        <ele>124.8</ele>
        <time>2025-12-08T13:17:42.000Z</time>
      </trkpt>
      <trkpt lat="43.41379" lon="6.46015">
        <ele>123.9</ele>
        <time>2025-12-08T13:17:54.000Z</time>
      </trkpt>
      <trkpt lat="43.41371" lon="6.46007">
        <ele>122.6</ele>
        <time>2025-12-08T13:18:07.000Z</time>
      </trkpt>
      <trkpt lat="43.41366" lon="6.45996">
        <ele>121.5</ele>
        <time>2025-12-08T13:18:21.000Z</time>
      </trkpt>
      <trkpt lat="43.41359" lon="6.45986">
        <ele>121.1</ele>
        <time>2025-12-08T13:18:34.000Z</time>
      </trkpt>
      <trkpt lat="43.41354" lon="6.45976">
        <ele>121</ele>
        <time>2025-12-08T13:18:46.000Z</time>
      </trkpt>
      <trkpt lat="43.41347" lon="6.45968">
        <ele>120.6</ele>
        <time>2025-12-08T13:18:57.000Z</time>
      </trkpt>
      <trkpt lat="43.41339" lon="6.4596">
        <ele>120.3</ele>
        <time>2025-12-08T13:19:08.000Z</time>
      </trkpt>
      <trkpt lat="43.41334" lon="6.45949">
        <ele>119.6</ele>
        <time>2025-12-08T13:19:19.000Z</time>
      </trkpt>
      <trkpt lat="43.41331" lon="6.45938">
        <ele>119.4</ele>
        <time>2025-12-08T13:19:30.000Z</time>
      </trkpt>
      <trkpt lat="43.41331" lon="6.45924">
        <ele>119.4</ele>
        <time>2025-12-08T13:19:42.000Z</time>
      </trkpt>
      <trkpt lat="43.41328" lon="6.45911">
        <ele>120</ele>
        <time>2025-12-08T13:19:56.000Z</time>
      </trkpt>
      <trkpt lat="43.41324" lon="6.45899">
        <ele>118.9</ele>
        <time>2025-12-08T13:20:10.000Z</time>
      </trkpt>
      <trkpt lat="43.41322" lon="6.45886">
        <ele>118.4</ele>
        <time>2025-12-08T13:20:21.000Z</time>
      </trkpt>
      <trkpt lat="43.41317" lon="6.45875">
        <ele>118</ele>
        <time>2025-12-08T13:20:38.000Z</time>
      </trkpt>
      <trkpt lat="43.41315" lon="6.45862">
        <ele>116.7</ele>
        <time>2025-12-08T13:20:51.000Z</time>
      </trkpt>
      <trkpt lat="43.41307" lon="6.45855">
        <ele>115.4</ele>
        <time>2025-12-08T13:21:03.000Z</time>
      </trkpt>
      <trkpt lat="43.41299" lon="6.45849">
        <ele>114.1</ele>
        <time>2025-12-08T13:21:17.000Z</time>
      </trkpt>
      <trkpt lat="43.41291" lon="6.45842">
        <ele>113.1</ele>
        <time>2025-12-08T13:21:32.000Z</time>
      </trkpt>
      <trkpt lat="43.41284" lon="6.45835">
        <ele>111.5</ele>
        <time>2025-12-08T13:21:53.000Z</time>
      </trkpt>
      <trkpt lat="43.41276" lon="6.45827">
        <ele>110.5</ele>
        <time>2025-12-08T13:22:04.000Z</time>
      </trkpt>
      <trkpt lat="43.41269" lon="6.45819">
        <ele>109.3</ele>
        <time>2025-12-08T13:22:16.000Z</time>
      </trkpt>
      <trkpt lat="43.41263" lon="6.4581">
        <ele>107.5</ele>
        <time>2025-12-08T13:22:40.000Z</time>
      </trkpt>
      <trkpt lat="43.41257" lon="6.458">
        <ele>106.3</ele>
        <time>2025-12-08T13:22:52.000Z</time>
      </trkpt>
      <trkpt lat="43.41254" lon="6.45788">
        <ele>105.5</ele>
        <time>2025-12-08T13:23:04.000Z</time>
      </trkpt>
      <trkpt lat="43.41249" lon="6.45776">
        <ele>105.3</ele>
        <time>2025-12-08T13:23:18.000Z</time>
      </trkpt>
      <trkpt lat="43.41245" lon="6.45765">
        <ele>104.8</ele>
        <time>2025-12-08T13:23:31.000Z</time>
      </trkpt>
      <trkpt lat="43.41243" lon="6.45752">
        <ele>104.4</ele>
        <time>2025-12-08T13:24:12.000Z</time>
      </trkpt>
      <trkpt lat="43.4124" lon="6.45739">
        <ele>105</ele>
        <time>2025-12-08T13:24:24.000Z</time>
      </trkpt>
      <trkpt lat="43.4124" lon="6.45727">
        <ele>104.7</ele>
        <time>2025-12-08T13:24:35.000Z</time>
      </trkpt>
      <trkpt lat="43.41238" lon="6.45714">
        <ele>104.4</ele>
        <time>2025-12-08T13:24:47.000Z</time>
      </trkpt>
      <trkpt lat="43.41236" lon="6.45702">
        <ele>103.9</ele>
        <time>2025-12-08T13:25:12.000Z</time>
      </trkpt>
      <trkpt lat="43.41238" lon="6.45689">
        <ele>103.5</ele>
        <time>2025-12-08T13:25:22.000Z</time>
      </trkpt>
      <trkpt lat="43.41239" lon="6.45677">
        <ele>103</ele>
        <time>2025-12-08T13:25:35.000Z</time>
      </trkpt>
      <trkpt lat="43.41235" lon="6.45666">
        <ele>102.7</ele>
        <time>2025-12-08T13:25:46.000Z</time>
      </trkpt>
      <trkpt lat="43.41227" lon="6.4566">
        <ele>102</ele>
        <time>2025-12-08T13:25:58.000Z</time>
      </trkpt>
      <trkpt lat="43.41217" lon="6.45659">
        <ele>100.1</ele>
        <time>2025-12-08T13:26:44.000Z</time>
      </trkpt>
      <trkpt lat="43.41208" lon="6.45657">
        <ele>99.2</ele>
        <time>2025-12-08T13:27:11.000Z</time>
      </trkpt>
      <trkpt lat="43.412" lon="6.4565">
        <ele>98.5</ele>
        <time>2025-12-08T13:27:24.000Z</time>
      </trkpt>
      <trkpt lat="43.41194" lon="6.45641">
        <ele>97.3</ele>
        <time>2025-12-08T13:27:36.000Z</time>
      </trkpt>
      <trkpt lat="43.41187" lon="6.45633">
        <ele>95.2</ele>
        <time>2025-12-08T13:27:56.000Z</time>
      </trkpt>
      <trkpt lat="43.41187" lon="6.45619">
        <ele>94.2</ele>
        <time>2025-12-08T13:28:10.000Z</time>
      </trkpt>
      <trkpt lat="43.41186" lon="6.45607">
        <ele>93.1</ele>
        <time>2025-12-08T13:28:27.000Z</time>
      </trkpt>
      <trkpt lat="43.41191" lon="6.45596">
        <ele>91.6</ele>
        <time>2025-12-08T13:28:46.000Z</time>
      </trkpt>
      <trkpt lat="43.41195" lon="6.45584">
        <ele>90.6</ele>
        <time>2025-12-08T13:29:02.000Z</time>
      </trkpt>
      <trkpt lat="43.41199" lon="6.45572">
        <ele>90</ele>
        <time>2025-12-08T13:29:20.000Z</time>
      </trkpt>
      <trkpt lat="43.41203" lon="6.45561">
        <ele>89.8</ele>
        <time>2025-12-08T13:29:32.000Z</time>
      </trkpt>
      <trkpt lat="43.41209" lon="6.4555">
        <ele>89.4</ele>
        <time>2025-12-08T13:29:55.000Z</time>
      </trkpt>
      <trkpt lat="43.41213" lon="6.45539">
        <ele>88.8</ele>
        <time>2025-12-08T13:30:13.000Z</time>
      </trkpt>
      <trkpt lat="43.41217" lon="6.45528">
        <ele>88.1</ele>
        <time>2025-12-08T13:30:27.000Z</time>
      </trkpt>
      <trkpt lat="43.4122" lon="6.45515">
        <ele>86.9</ele>
        <time>2025-12-08T13:31:14.000Z</time>
      </trkpt>
      <trkpt lat="43.41213" lon="6.45506">
        <ele>86.5</ele>
        <time>2025-12-08T13:31:30.000Z</time>
      </trkpt>
      <trkpt lat="43.41212" lon="6.45493">
        <ele>85.6</ele>
        <time>2025-12-08T13:31:49.000Z</time>
      </trkpt>
      <trkpt lat="43.41208" lon="6.45481">
        <ele>85.1</ele>
        <time>2025-12-08T13:32:01.000Z</time>
      </trkpt>
      <trkpt lat="43.41206" lon="6.45468">
        <ele>84.3</ele>
        <time>2025-12-08T13:32:17.000Z</time>
      </trkpt>
      <trkpt lat="43.41209" lon="6.45457">
        <ele>83.1</ele>
        <time>2025-12-08T13:32:40.000Z</time>
      </trkpt>
      <trkpt lat="43.41217" lon="6.4545">
        <ele>83.3</ele>
        <time>2025-12-08T13:32:52.000Z</time>
      </trkpt>
      <trkpt lat="43.41219" lon="6.45437">
        <ele>83.3</ele>
        <time>2025-12-08T13:33:05.000Z</time>
      </trkpt>
      <trkpt lat="43.41211" lon="6.4543">
        <ele>83.2</ele>
        <time>2025-12-08T13:33:21.000Z</time>
      </trkpt>
      <trkpt lat="43.41203" lon="6.45423">
        <ele>83.6</ele>
        <time>2025-12-08T13:33:38.000Z</time>
      </trkpt>
      <trkpt lat="43.41203" lon="6.4541">
        <ele>84.1</ele>
        <time>2025-12-08T13:33:51.000Z</time>
      </trkpt>
      <trkpt lat="43.41199" lon="6.45398">
        <ele>84.8</ele>
        <time>2025-12-08T13:34:03.000Z</time>
      </trkpt>
      <trkpt lat="43.41199" lon="6.45385">
        <ele>85.8</ele>
        <time>2025-12-08T13:34:16.000Z</time>
      </trkpt>
      <trkpt lat="43.41195" lon="6.45373">
        <ele>86.5</ele>
        <time>2025-12-08T13:34:28.000Z</time>
      </trkpt>
      <trkpt lat="43.41194" lon="6.45361">
        <ele>86.7</ele>
        <time>2025-12-08T13:34:38.000Z</time>
      </trkpt>
      <trkpt lat="43.41196" lon="6.45349">
        <ele>86.7</ele>
        <time>2025-12-08T13:34:50.000Z</time>
      </trkpt>
      <trkpt lat="43.41202" lon="6.45339">
        <ele>86.8</ele>
        <time>2025-12-08T13:35:03.000Z</time>
      </trkpt>
      <trkpt lat="43.41201" lon="6.45326">
        <ele>86.5</ele>
        <time>2025-12-08T13:35:15.000Z</time>
      </trkpt>
      <trkpt lat="43.41202" lon="6.45313">
        <ele>85.8</ele>
        <time>2025-12-08T13:35:26.000Z</time>
      </trkpt>
      <trkpt lat="43.41204" lon="6.453">
        <ele>85.5</ele>
        <time>2025-12-08T13:35:37.000Z</time>
      </trkpt>
      <trkpt lat="43.41206" lon="6.45288">
        <ele>85.3</ele>
        <time>2025-12-08T13:35:50.000Z</time>
      </trkpt>
      <trkpt lat="43.41208" lon="6.45276">
        <ele>85.1</ele>
        <time>2025-12-08T13:36:00.000Z</time>
      </trkpt>
      <trkpt lat="43.4121" lon="6.45263">
        <ele>84.7</ele>
        <time>2025-12-08T13:36:10.000Z</time>
      </trkpt>
      <trkpt lat="43.41211" lon="6.4525">
        <ele>84.4</ele>
        <time>2025-12-08T13:36:20.000Z</time>
      </trkpt>
      <trkpt lat="43.41209" lon="6.45238">
        <ele>84.3</ele>
        <time>2025-12-08T13:36:35.000Z</time>
      </trkpt>
      <trkpt lat="43.41208" lon="6.45225">
        <ele>84.4</ele>
        <time>2025-12-08T13:36:46.000Z</time>
      </trkpt>
      <trkpt lat="43.41208" lon="6.45212">
        <ele>84.4</ele>
        <time>2025-12-08T13:37:02.000Z</time>
      </trkpt>
      <trkpt lat="43.4121" lon="6.452">
        <ele>85</ele>
        <time>2025-12-08T13:37:15.000Z</time>
      </trkpt>
      <trkpt lat="43.41206" lon="6.45188">
        <ele>85.2</ele>
        <time>2025-12-08T13:37:30.000Z</time>
      </trkpt>
      <trkpt lat="43.41204" lon="6.45175">
        <ele>85</ele>
        <time>2025-12-08T13:37:42.000Z</time>
      </trkpt>
      <trkpt lat="43.412" lon="6.45163">
        <ele>84.8</ele>
        <time>2025-12-08T13:37:55.000Z</time>
      </trkpt>
      <trkpt lat="43.41198" lon="6.4515">
        <ele>85</ele>
        <time>2025-12-08T13:38:07.000Z</time>
      </trkpt>
      <trkpt lat="43.41196" lon="6.45138">
        <ele>85.1</ele>
        <time>2025-12-08T13:38:20.000Z</time>
      </trkpt>
      <trkpt lat="43.41191" lon="6.45127">
        <ele>84.5</ele>
        <time>2025-12-08T13:38:36.000Z</time>
      </trkpt>
      <trkpt lat="43.41188" lon="6.45115">
        <ele>84.1</ele>
        <time>2025-12-08T13:39:52.000Z</time>
      </trkpt>
      <trkpt lat="43.41181" lon="6.45107">
        <ele>83.8</ele>
        <time>2025-12-08T13:40:09.000Z</time>
      </trkpt>
      <trkpt lat="43.41173" lon="6.45101">
        <ele>84.1</ele>
        <time>2025-12-08T13:40:30.000Z</time>
      </trkpt>
      <trkpt lat="43.41168" lon="6.45089">
        <ele>83.4</ele>
        <time>2025-12-08T13:40:45.000Z</time>
      </trkpt>
      <trkpt lat="43.41161" lon="6.45082">
        <ele>83.4</ele>
        <time>2025-12-08T13:41:01.000Z</time>
      </trkpt>
      <trkpt lat="43.41154" lon="6.45074">
        <ele>83.7</ele>
        <time>2025-12-08T13:41:11.000Z</time>
      </trkpt>
      <trkpt lat="43.41145" lon="6.45074">
        <ele>82.9</ele>
        <time>2025-12-08T13:41:31.000Z</time>
      </trkpt>
      <trkpt lat="43.41137" lon="6.45082">
        <ele>81.8</ele>
        <time>2025-12-08T13:41:49.000Z</time>
      </trkpt>
      <trkpt lat="43.41131" lon="6.45091">
        <ele>81.4</ele>
        <time>2025-12-08T13:42:00.000Z</time>
      </trkpt>
      <trkpt lat="43.41122" lon="6.45096">
        <ele>80.8</ele>
        <time>2025-12-08T13:42:18.000Z</time>
      </trkpt>
      <trkpt lat="43.41113" lon="6.45091">
        <ele>80.1</ele>
        <time>2025-12-08T13:42:31.000Z</time>
      </trkpt>
      <trkpt lat="43.41106" lon="6.45084">
        <ele>79.4</ele>
        <time>2025-12-08T13:42:41.000Z</time>
      </trkpt>
      <trkpt lat="43.41098" lon="6.45076">
        <ele>78.6</ele>
        <time>2025-12-08T13:42:53.000Z</time>
      </trkpt>
      <trkpt lat="43.4109" lon="6.45072">
        <ele>78</ele>
        <time>2025-12-08T13:43:12.000Z</time>
      </trkpt>
      <trkpt lat="43.41082" lon="6.45065">
        <ele>77.5</ele>
        <time>2025-12-08T13:43:22.000Z</time>
      </trkpt>
      <trkpt lat="43.41073" lon="6.45058">
        <ele>76.5</ele>
        <time>2025-12-08T13:43:33.000Z</time>
      </trkpt>
      <trkpt lat="43.41064" lon="6.45053">
        <ele>75.6</ele>
        <time>2025-12-08T13:43:47.000Z</time>
      </trkpt>
      <trkpt lat="43.41054" lon="6.4505">
        <ele>74.4</ele>
        <time>2025-12-08T13:43:58.000Z</time>
      </trkpt>
      <trkpt lat="43.41045" lon="6.4505">
        <ele>72.9</ele>
        <time>2025-12-08T13:44:18.000Z</time>
      </trkpt>
      <trkpt lat="43.41035" lon="6.45049">
        <ele>71.8</ele>
        <time>2025-12-08T13:44:37.000Z</time>
      </trkpt>
      <trkpt lat="43.41027" lon="6.45044">
        <ele>71</ele>
        <time>2025-12-08T13:44:49.000Z</time>
      </trkpt>
      <trkpt lat="43.41019" lon="6.45038">
        <ele>69.7</ele>
        <time>2025-12-08T13:45:17.000Z</time>
      </trkpt>
      <trkpt lat="43.4101" lon="6.45033">
        <ele>69.1</ele>
        <time>2025-12-08T13:45:30.000Z</time>
      </trkpt>
      <trkpt lat="43.41002" lon="6.45026">
        <ele>68.3</ele>
        <time>2025-12-08T13:45:42.000Z</time>
      </trkpt>
      <trkpt lat="43.40993" lon="6.45021">
        <ele>66.6</ele>
        <time>2025-12-08T13:46:00.000Z</time>
      </trkpt>
      <trkpt lat="43.40984" lon="6.45015">
        <ele>65.8</ele>
        <time>2025-12-08T13:46:12.000Z</time>
      </trkpt>
      <trkpt lat="43.40976" lon="6.4501">
        <ele>64.6</ele>
        <time>2025-12-08T13:46:32.000Z</time>
      </trkpt>
      <trkpt lat="43.40967" lon="6.45003">
        <ele>63.4</ele>
        <time>2025-12-08T13:46:45.000Z</time>
      </trkpt>
      <trkpt lat="43.4096" lon="6.44996">
        <ele>62.3</ele>
        <time>2025-12-08T13:46:57.000Z</time>
      </trkpt>
      <trkpt lat="43.40953" lon="6.44987">
        <ele>60.9</ele>
        <time>2025-12-08T13:47:08.000Z</time>
      </trkpt>
      <trkpt lat="43.40946" lon="6.4498">
        <ele>59.8</ele>
        <time>2025-12-08T13:47:19.000Z</time>
      </trkpt>
      <trkpt lat="43.40941" lon="6.4497">
        <ele>59</ele>
        <time>2025-12-08T13:47:32.000Z</time>
      </trkpt>
      <trkpt lat="43.40937" lon="6.44959">
        <ele>58.2</ele>
        <time>2025-12-08T13:47:46.000Z</time>
      </trkpt>
      <trkpt lat="43.40931" lon="6.44948">
        <ele>57.7</ele>
        <time>2025-12-08T13:47:56.000Z</time>
      </trkpt>
      <trkpt lat="43.40926" lon="6.44937">
        <ele>57.4</ele>
        <time>2025-12-08T13:48:06.000Z</time>
      </trkpt>
      <trkpt lat="43.40927" lon="6.44925">
        <ele>56.9</ele>
        <time>2025-12-08T13:48:22.000Z</time>
      </trkpt>
      <trkpt lat="43.40933" lon="6.44915">
        <ele>56.8</ele>
        <time>2025-12-08T13:48:33.000Z</time>
      </trkpt>
      <trkpt lat="43.4094" lon="6.44907">
        <ele>56.9</ele>
        <time>2025-12-08T13:48:44.000Z</time>
      </trkpt>
      <trkpt lat="43.40947" lon="6.44899">
        <ele>57.2</ele>
        <time>2025-12-08T13:48:55.000Z</time>
      </trkpt>
      <trkpt lat="43.40954" lon="6.44889">
        <ele>57.5</ele>
        <time>2025-12-08T13:49:06.000Z</time>
      </trkpt>
      <trkpt lat="43.40961" lon="6.4488">
        <ele>58.2</ele>
        <time>2025-12-08T13:49:21.000Z</time>
      </trkpt>
      <trkpt lat="43.40968" lon="6.44871">
        <ele>58</ele>
        <time>2025-12-08T13:49:36.000Z</time>
      </trkpt>
      <trkpt lat="43.40974" lon="6.44861">
        <ele>57.9</ele>
        <time>2025-12-08T13:49:48.000Z</time>
      </trkpt>
      <trkpt lat="43.40981" lon="6.4485">
        <ele>58</ele>
        <time>2025-12-08T13:49:59.000Z</time>
      </trkpt>
      <trkpt lat="43.40988" lon="6.44841">
        <ele>58</ele>
        <time>2025-12-08T13:50:10.000Z</time>
      </trkpt>
      <trkpt lat="43.40995" lon="6.44831">
        <ele>57.9</ele>
        <time>2025-12-08T13:50:19.000Z</time>
      </trkpt>
      <trkpt lat="43.41" lon="6.44821">
        <ele>57.8</ele>
        <time>2025-12-08T13:50:34.000Z</time>
      </trkpt>
      <trkpt lat="43.41004" lon="6.44809">
        <ele>57.9</ele>
        <time>2025-12-08T13:50:44.000Z</time>
      </trkpt>
      <trkpt lat="43.41006" lon="6.44797">
        <ele>58.1</ele>
        <time>2025-12-08T13:50:54.000Z</time>
      </trkpt>
      <trkpt lat="43.41011" lon="6.44785">
        <ele>58.6</ele>
        <time>2025-12-08T13:51:05.000Z</time>
      </trkpt>
      <trkpt lat="43.41015" lon="6.44773">
        <ele>59</ele>
        <time>2025-12-08T13:51:16.000Z</time>
      </trkpt>
      <trkpt lat="43.41019" lon="6.44762">
        <ele>59.3</ele>
        <time>2025-12-08T13:51:26.000Z</time>
      </trkpt>
      <trkpt lat="43.41025" lon="6.44751">
        <ele>59.7</ele>
        <time>2025-12-08T13:51:39.000Z</time>
      </trkpt>
      <trkpt lat="43.41029" lon="6.44741">
        <ele>59.8</ele>
        <time>2025-12-08T13:51:48.000Z</time>
      </trkpt>
      <trkpt lat="43.41034" lon="6.4473">
        <ele>60</ele>
        <time>2025-12-08T13:51:57.000Z</time>
      </trkpt>
      <trkpt lat="43.4104" lon="6.44719">
        <ele>59.9</ele>
        <time>2025-12-08T13:52:06.000Z</time>
      </trkpt>
      <trkpt lat="43.41046" lon="6.44708">
        <ele>60.4</ele>
        <time>2025-12-08T13:52:16.000Z</time>
      </trkpt>
      <trkpt lat="43.41051" lon="6.44697">
        <ele>60.3</ele>
        <time>2025-12-08T13:52:32.000Z</time>
      </trkpt>
      <trkpt lat="43.41057" lon="6.44687">
        <ele>60.5</ele>
        <time>2025-12-08T13:52:43.000Z</time>
      </trkpt>
      <trkpt lat="43.41063" lon="6.44676">
        <ele>60.9</ele>
        <time>2025-12-08T13:52:53.000Z</time>
      </trkpt>
      <trkpt lat="43.41069" lon="6.44667">
        <ele>61</ele>
        <time>2025-12-08T13:53:03.000Z</time>
      </trkpt>
      <trkpt lat="43.41075" lon="6.44656">
        <ele>61</ele>
        <time>2025-12-08T13:53:13.000Z</time>
      </trkpt>
      <trkpt lat="43.41081" lon="6.44647">
        <ele>61.4</ele>
        <time>2025-12-08T13:53:23.000Z</time>
      </trkpt>
      <trkpt lat="43.41088" lon="6.44637">
        <ele>61.7</ele>
        <time>2025-12-08T13:53:40.000Z</time>
      </trkpt>
      <trkpt lat="43.41096" lon="6.4463">
        <ele>61.9</ele>
        <time>2025-12-08T13:53:51.000Z</time>
      </trkpt>
      <trkpt lat="43.41103" lon="6.44621">
        <ele>62.6</ele>
        <time>2025-12-08T13:54:02.000Z</time>
      </trkpt>
      <trkpt lat="43.4111" lon="6.44613">
        <ele>63.2</ele>
        <time>2025-12-08T13:54:14.000Z</time>
      </trkpt>
      <trkpt lat="43.41118" lon="6.44606">
        <ele>63.8</ele>
        <time>2025-12-08T13:54:29.000Z</time>
      </trkpt>
      <trkpt lat="43.41124" lon="6.44597">
        <ele>64.7</ele>
        <time>2025-12-08T13:54:42.000Z</time>
      </trkpt>
      <trkpt lat="43.41129" lon="6.44586">
        <ele>65.4</ele>
        <time>2025-12-08T13:54:55.000Z</time>
      </trkpt>
      <trkpt lat="43.41134" lon="6.44575">
        <ele>65.8</ele>
        <time>2025-12-08T13:55:11.000Z</time>
      </trkpt>
      <trkpt lat="43.41138" lon="6.44563">
        <ele>66</ele>
        <time>2025-12-08T13:55:21.000Z</time>
      </trkpt>
      <trkpt lat="43.41144" lon="6.44553">
        <ele>66.2</ele>
        <time>2025-12-08T13:55:32.000Z</time>
      </trkpt>
      <trkpt lat="43.41151" lon="6.44546">
        <ele>66.5</ele>
        <time>2025-12-08T13:55:41.000Z</time>
      </trkpt>
      <trkpt lat="43.41158" lon="6.44537">
        <ele>66.6</ele>
        <time>2025-12-08T13:55:50.000Z</time>
      </trkpt>
      <trkpt lat="43.41164" lon="6.44527">
        <ele>66.7</ele>
        <time>2025-12-08T13:56:00.000Z</time>
      </trkpt>
      <trkpt lat="43.41172" lon="6.44518">
        <ele>67</ele>
        <time>2025-12-08T13:56:11.000Z</time>
      </trkpt>
      <trkpt lat="43.41177" lon="6.44506">
        <ele>67.1</ele>
        <time>2025-12-08T13:56:21.000Z</time>
      </trkpt>
      <trkpt lat="43.41185" lon="6.44499">
        <ele>67.3</ele>
        <time>2025-12-08T13:56:30.000Z</time>
      </trkpt>
      <trkpt lat="43.41192" lon="6.44489">
        <ele>67.2</ele>
        <time>2025-12-08T13:56:42.000Z</time>
      </trkpt>
      <trkpt lat="43.412" lon="6.44484">
        <ele>67.2</ele>
        <time>2025-12-08T13:56:51.000Z</time>
      </trkpt>
      <trkpt lat="43.41208" lon="6.44478">
        <ele>66.9</ele>
        <time>2025-12-08T13:57:02.000Z</time>
      </trkpt>
      <trkpt lat="43.41217" lon="6.44474">
        <ele>66.7</ele>
        <time>2025-12-08T13:57:13.000Z</time>
      </trkpt>
      <trkpt lat="43.41226" lon="6.44471">
        <ele>66.9</ele>
        <time>2025-12-08T13:57:23.000Z</time>
      </trkpt>
      <trkpt lat="43.41235" lon="6.44466">
        <ele>66.8</ele>
        <time>2025-12-08T13:57:35.000Z</time>
      </trkpt>
      <trkpt lat="43.41244" lon="6.44463">
        <ele>66.9</ele>
        <time>2025-12-08T13:57:59.000Z</time>
      </trkpt>
      <trkpt lat="43.41252" lon="6.44457">
        <ele>67</ele>
        <time>2025-12-08T13:58:11.000Z</time>
      </trkpt>
      <trkpt lat="43.4126" lon="6.44452">
        <ele>67.3</ele>
        <time>2025-12-08T13:58:25.000Z</time>
      </trkpt>
      <trkpt lat="43.4127" lon="6.44447">
        <ele>67.7</ele>
        <time>2025-12-08T13:58:38.000Z</time>
      </trkpt>
      <trkpt lat="43.41278" lon="6.44442">
        <ele>68.1</ele>
        <time>2025-12-08T13:58:52.000Z</time>
      </trkpt>
      <trkpt lat="43.41288" lon="6.44437">
        <ele>68.8</ele>
        <time>2025-12-08T13:59:06.000Z</time>
      </trkpt>
      <trkpt lat="43.41297" lon="6.44433">
        <ele>69</ele>
        <time>2025-12-08T13:59:15.000Z</time>
      </trkpt>
      <trkpt lat="43.41306" lon="6.44429">
        <ele>69.1</ele>
        <time>2025-12-08T13:59:23.000Z</time>
      </trkpt>
      <trkpt lat="43.41314" lon="6.44422">
        <ele>69.3</ele>
        <time>2025-12-08T13:59:34.000Z</time>
      </trkpt>
      <trkpt lat="43.41323" lon="6.44419">
        <ele>69</ele>
        <time>2025-12-08T14:02:37.000Z</time>
      </trkpt>
      <trkpt lat="43.41331" lon="6.44411">
        <ele>68.9</ele>
        <time>2025-12-08T14:03:43.000Z</time>
      </trkpt>
      <trkpt lat="43.41339" lon="6.44405">
        <ele>69</ele>
        <time>2025-12-08T14:03:52.000Z</time>
      </trkpt>
      <trkpt lat="43.41349" lon="6.44402">
        <ele>69.3</ele>
        <time>2025-12-08T14:04:01.000Z</time>
      </trkpt>
      <trkpt lat="43.41358" lon="6.44401">
        <ele>69.7</ele>
        <time>2025-12-08T14:04:10.000Z</time>
      </trkpt>
      <trkpt lat="43.41363" lon="6.4439">
        <ele>70.3</ele>
        <time>2025-12-08T14:04:29.000Z</time>
      </trkpt>
      <trkpt lat="43.41374" lon="6.44387">
        <ele>70.6</ele>
        <time>2025-12-08T14:04:38.000Z</time>
      </trkpt>
      <trkpt lat="43.41384" lon="6.44386">
        <ele>70.6</ele>
        <time>2025-12-08T14:04:43.000Z</time>
      </trkpt>
      <trkpt lat="43.41394" lon="6.44383">
        <ele>70.8</ele>
        <time>2025-12-08T14:04:49.000Z</time>
      </trkpt>
      <trkpt lat="43.41403" lon="6.44386">
        <ele>71.2</ele>
        <time>2025-12-08T14:05:00.000Z</time>
      </trkpt>
      <trkpt lat="43.41413" lon="6.44388">
        <ele>71.5</ele>
        <time>2025-12-08T14:06:30.000Z</time>
      </trkpt>
      <trkpt lat="43.41419" lon="6.44379">
        <ele>71.6</ele>
        <time>2025-12-08T14:07:20.000Z</time>
      </trkpt>
      <trkpt lat="43.41425" lon="6.44369">
        <ele>71.7</ele>
        <time>2025-12-08T14:07:33.000Z</time>
      </trkpt>
      <trkpt lat="43.41426" lon="6.44357">
        <ele>71.8</ele>
        <time>2025-12-08T14:07:43.000Z</time>
      </trkpt>
      <trkpt lat="43.4143" lon="6.44345">
        <ele>72.1</ele>
        <time>2025-12-08T14:07:58.000Z</time>
      </trkpt>
      <trkpt lat="43.41434" lon="6.44333">
        <ele>72.2</ele>
        <time>2025-12-08T14:08:16.000Z</time>
      </trkpt>
      <trkpt lat="43.41438" lon="6.44321">
        <ele>72.7</ele>
        <time>2025-12-08T14:08:26.000Z</time>
      </trkpt>
      <trkpt lat="43.41446" lon="6.44314">
        <ele>73.3</ele>
        <time>2025-12-08T14:08:36.000Z</time>
      </trkpt>
      <trkpt lat="43.41454" lon="6.44308">
        <ele>74</ele>
        <time>2025-12-08T14:08:53.000Z</time>
      </trkpt>
      <trkpt lat="43.41463" lon="6.44304">
        <ele>74.2</ele>
        <time>2025-12-08T14:09:02.000Z</time>
      </trkpt>
      <trkpt lat="43.41472" lon="6.443">
        <ele>74.7</ele>
        <time>2025-12-08T14:09:11.000Z</time>
      </trkpt>
      <trkpt lat="43.41481" lon="6.44294">
        <ele>75.3</ele>
        <time>2025-12-08T14:09:21.000Z</time>
      </trkpt>
      <trkpt lat="43.4149" lon="6.4429">
        <ele>75.8</ele>
        <time>2025-12-08T14:09:32.000Z</time>
      </trkpt>
      <trkpt lat="43.41499" lon="6.44288">
        <ele>76.4</ele>
        <time>2025-12-08T14:09:58.000Z</time>
      </trkpt>
      <trkpt lat="43.41507" lon="6.44283">
        <ele>76.6</ele>
        <time>2025-12-08T14:10:06.000Z</time>
      </trkpt>
      <trkpt lat="43.41516" lon="6.44277">
        <ele>76.5</ele>
        <time>2025-12-08T14:10:15.000Z</time>
      </trkpt>
      <trkpt lat="43.41525" lon="6.44273">
        <ele>76.9</ele>
        <time>2025-12-08T14:10:23.000Z</time>
      </trkpt>
      <trkpt lat="43.41534" lon="6.44269">
        <ele>77.1</ele>
        <time>2025-12-08T14:10:32.000Z</time>
      </trkpt>
      <trkpt lat="43.41543" lon="6.44263">
        <ele>77</ele>
        <time>2025-12-08T14:10:45.000Z</time>
      </trkpt>
      <trkpt lat="43.41552" lon="6.44259">
        <ele>77.6</ele>
        <time>2025-12-08T14:10:58.000Z</time>
      </trkpt>
      <trkpt lat="43.41561" lon="6.44256">
        <ele>77.7</ele>
        <time>2025-12-08T14:11:06.000Z</time>
      </trkpt>
      <trkpt lat="43.41569" lon="6.44249">
        <ele>78.3</ele>
        <time>2025-12-08T14:11:17.000Z</time>
      </trkpt>
      <trkpt lat="43.41577" lon="6.44242">
        <ele>78.7</ele>
        <time>2025-12-08T14:11:36.000Z</time>
      </trkpt>
      <trkpt lat="43.41585" lon="6.44235">
        <ele>79</ele>
        <time>2025-12-08T14:11:44.000Z</time>
      </trkpt>
      <trkpt lat="43.41591" lon="6.44226">
        <ele>79.4</ele>
        <time>2025-12-08T14:11:58.000Z</time>
      </trkpt>
      <trkpt lat="43.416" lon="6.44221">
        <ele>79.7</ele>
        <time>2025-12-08T14:12:08.000Z</time>
      </trkpt>
      <trkpt lat="43.41609" lon="6.4422">
        <ele>79.7</ele>
        <time>2025-12-08T14:16:56.000Z</time>
      </trkpt>
      <trkpt lat="43.41619" lon="6.44219">
        <ele>80</ele>
        <time>2025-12-08T14:17:06.000Z</time>
      </trkpt>
      <trkpt lat="43.41629" lon="6.44216">
        <ele>80.6</ele>
        <time>2025-12-08T14:17:16.000Z</time>
      </trkpt>
      <trkpt lat="43.41638" lon="6.44213">
        <ele>80.9</ele>
        <time>2025-12-08T14:17:27.000Z</time>
      </trkpt>
      <trkpt lat="43.41647" lon="6.44211">
        <ele>81.7</ele>
        <time>2025-12-08T14:17:41.000Z</time>
      </trkpt>
      <trkpt lat="43.41657" lon="6.4421">
        <ele>82</ele>
        <time>2025-12-08T14:17:50.000Z</time>
      </trkpt>
      <trkpt lat="43.41666" lon="6.44208">
        <ele>82.5</ele>
        <time>2025-12-08T14:17:59.000Z</time>
      </trkpt>
      <trkpt lat="43.41675" lon="6.44204">
        <ele>82.7</ele>
        <time>2025-12-08T14:18:07.000Z</time>
      </trkpt>
      <trkpt lat="43.41685" lon="6.44202">
        <ele>82.8</ele>
        <time>2025-12-08T14:18:16.000Z</time>
      </trkpt>
      <trkpt lat="43.41694" lon="6.442">
        <ele>83.1</ele>
        <time>2025-12-08T14:18:25.000Z</time>
      </trkpt>
      <trkpt lat="43.41704" lon="6.44196">
        <ele>84</ele>
        <time>2025-12-08T14:18:35.000Z</time>
      </trkpt>
      <trkpt lat="43.41713" lon="6.44198">
        <ele>84.6</ele>
        <time>2025-12-08T14:18:45.000Z</time>
      </trkpt>
      <trkpt lat="43.41722" lon="6.44202">
        <ele>85.3</ele>
        <time>2025-12-08T14:18:54.000Z</time>
      </trkpt>
      <trkpt lat="43.41731" lon="6.442">
        <ele>86.3</ele>
        <time>2025-12-08T14:19:09.000Z</time>
      </trkpt>
      <trkpt lat="43.41741" lon="6.442">
        <ele>86.9</ele>
        <time>2025-12-08T14:19:18.000Z</time>
      </trkpt>
      <trkpt lat="43.4175" lon="6.44197">
        <ele>87.3</ele>
        <time>2025-12-08T14:19:27.000Z</time>
      </trkpt>
      <trkpt lat="43.41759" lon="6.44194">
        <ele>87.1</ele>
        <time>2025-12-08T14:19:36.000Z</time>
      </trkpt>
      <trkpt lat="43.41767" lon="6.44191">
        <ele>87.2</ele>
        <time>2025-12-08T14:19:44.000Z</time>
      </trkpt>
      <trkpt lat="43.41777" lon="6.44186">
        <ele>87.3</ele>
        <time>2025-12-08T14:19:58.000Z</time>
      </trkpt>
      <trkpt lat="43.41786" lon="6.44184">
        <ele>87.3</ele>
        <time>2025-12-08T14:20:06.000Z</time>
      </trkpt>
      <trkpt lat="43.41795" lon="6.44183">
        <ele>88.1</ele>
        <time>2025-12-08T14:20:27.000Z</time>
      </trkpt>
      <trkpt lat="43.41804" lon="6.44183">
        <ele>88.3</ele>
        <time>2025-12-08T14:20:41.000Z</time>
      </trkpt>
      <trkpt lat="43.41812" lon="6.44181">
        <ele>89.2</ele>
        <time>2025-12-08T14:20:51.000Z</time>
      </trkpt>
      <trkpt lat="43.41821" lon="6.44174">
        <ele>90.1</ele>
        <time>2025-12-08T14:21:01.000Z</time>
      </trkpt>
      <trkpt lat="43.41827" lon="6.44166">
        <ele>91</ele>
        <time>2025-12-08T14:21:16.000Z</time>
      </trkpt>
      <trkpt lat="43.41833" lon="6.44155">
        <ele>91.6</ele>
        <time>2025-12-08T14:21:27.000Z</time>
      </trkpt>
      <trkpt lat="43.41839" lon="6.44144">
        <ele>92.1</ele>
        <time>2025-12-08T14:21:39.000Z</time>
      </trkpt>
      <trkpt lat="43.41843" lon="6.44133">
        <ele>92.8</ele>
        <time>2025-12-08T14:21:48.000Z</time>
      </trkpt>
      <trkpt lat="43.41847" lon="6.4412">
        <ele>93.6</ele>
        <time>2025-12-08T14:21:57.000Z</time>
      </trkpt>
      <trkpt lat="43.41853" lon="6.4411">
        <ele>94.4</ele>
        <time>2025-12-08T14:22:11.000Z</time>
      </trkpt>
      <trkpt lat="43.41858" lon="6.44099">
        <ele>95.4</ele>
        <time>2025-12-08T14:22:22.000Z</time>
      </trkpt>
      <trkpt lat="43.41861" lon="6.44086">
        <ele>95.9</ele>
        <time>2025-12-08T14:22:35.000Z</time>
      </trkpt>
      <trkpt lat="43.41863" lon="6.44074">
        <ele>96.1</ele>
        <time>2025-12-08T14:22:43.000Z</time>
      </trkpt>
      <trkpt lat="43.41866" lon="6.44061">
        <ele>96.2</ele>
        <time>2025-12-08T14:22:51.000Z</time>
      </trkpt>
      <trkpt lat="43.41868" lon="6.44048">
        <ele>96.2</ele>
        <time>2025-12-08T14:22:59.000Z</time>
      </trkpt>
      <trkpt lat="43.4187" lon="6.44036">
        <ele>96.2</ele>
        <time>2025-12-08T14:23:08.000Z</time>
      </trkpt>
      <trkpt lat="43.41873" lon="6.44023">
        <ele>96.4</ele>
        <time>2025-12-08T14:23:19.000Z</time>
      </trkpt>
      <trkpt lat="43.41874" lon="6.44011">
        <ele>96.5</ele>
        <time>2025-12-08T14:23:30.000Z</time>
      </trkpt>
      <trkpt lat="43.41877" lon="6.43999">
        <ele>96.4</ele>
        <time>2025-12-08T14:23:42.000Z</time>
      </trkpt>
      <trkpt lat="43.41879" lon="6.43986">
        <ele>96.3</ele>
        <time>2025-12-08T14:23:51.000Z</time>
      </trkpt>
      <trkpt lat="43.41883" lon="6.43975">
        <ele>96.3</ele>
        <time>2025-12-08T14:23:59.000Z</time>
      </trkpt>
      <trkpt lat="43.41889" lon="6.43965">
        <ele>96.5</ele>
        <time>2025-12-08T14:24:11.000Z</time>
      </trkpt>
      <trkpt lat="43.41898" lon="6.4396">
        <ele>96.6</ele>
        <time>2025-12-08T14:24:20.000Z</time>
      </trkpt>
      <trkpt lat="43.41906" lon="6.43954">
        <ele>96.8</ele>
        <time>2025-12-08T14:24:35.000Z</time>
      </trkpt>
      <trkpt lat="43.41916" lon="6.43951">
        <ele>97</ele>
        <time>2025-12-08T14:24:54.000Z</time>
      </trkpt>
      <trkpt lat="43.41924" lon="6.43948">
        <ele>97.3</ele>
        <time>2025-12-08T14:25:10.000Z</time>
      </trkpt>
      <trkpt lat="43.41934" lon="6.43943">
        <ele>97.8</ele>
        <time>2025-12-08T14:25:21.000Z</time>
      </trkpt>
      <trkpt lat="43.41942" lon="6.4394">
        <ele>98.5</ele>
        <time>2025-12-08T14:25:36.000Z</time>
      </trkpt>
      <trkpt lat="43.41952" lon="6.43938">
        <ele>98.5</ele>
        <time>2025-12-08T14:25:47.000Z</time>
      </trkpt>
      <trkpt lat="43.41961" lon="6.43933">
        <ele>98.9</ele>
        <time>2025-12-08T14:25:59.000Z</time>
      </trkpt>
      <trkpt lat="43.4197" lon="6.43928">
        <ele>99.3</ele>
        <time>2025-12-08T14:26:11.000Z</time>
      </trkpt>
      <trkpt lat="43.4198" lon="6.43925">
        <ele>99.6</ele>
        <time>2025-12-08T14:26:21.000Z</time>
      </trkpt>
      <trkpt lat="43.41981" lon="6.43912">
        <ele>99.7</ele>
        <time>2025-12-08T14:26:50.000Z</time>
      </trkpt>
      <trkpt lat="43.41983" lon="6.43899">
        <ele>99.2</ele>
        <time>2025-12-08T14:27:03.000Z</time>
      </trkpt>
      <trkpt lat="43.41983" lon="6.43886">
        <ele>98.7</ele>
        <time>2025-12-08T14:27:12.000Z</time>
      </trkpt>
      <trkpt lat="43.41982" lon="6.43873">
        <ele>99.1</ele>
        <time>2025-12-08T14:27:27.000Z</time>
      </trkpt>
      <trkpt lat="43.41981" lon="6.4386">
        <ele>99.5</ele>
        <time>2025-12-08T14:27:45.000Z</time>
      </trkpt>
      <trkpt lat="43.41982" lon="6.43846">
        <ele>99.7</ele>
        <time>2025-12-08T14:27:54.000Z</time>
      </trkpt>
      <trkpt lat="43.41982" lon="6.43832">
        <ele>100</ele>
        <time>2025-12-08T14:28:04.000Z</time>
      </trkpt>
      <trkpt lat="43.41982" lon="6.4382">
        <ele>100.2</ele>
        <time>2025-12-08T14:28:13.000Z</time>
      </trkpt>
      <trkpt lat="43.41983" lon="6.43807">
        <ele>100.4</ele>
        <time>2025-12-08T14:28:21.000Z</time>
      </trkpt>
      <trkpt lat="43.4198" lon="6.43795">
        <ele>100.9</ele>
        <time>2025-12-08T14:28:30.000Z</time>
      </trkpt>
      <trkpt lat="43.41974" lon="6.43786">
        <ele>100.9</ele>
        <time>2025-12-08T14:28:52.000Z</time>
      </trkpt>
      <trkpt lat="43.41965" lon="6.43782">
        <ele>101.3</ele>
        <time>2025-12-08T14:29:01.000Z</time>
      </trkpt>
      <trkpt lat="43.41956" lon="6.43777">
        <ele>101.7</ele>
        <time>2025-12-08T14:29:12.000Z</time>
      </trkpt>
      <trkpt lat="43.41947" lon="6.43772">
        <ele>101.6</ele>
        <time>2025-12-08T14:29:20.000Z</time>
      </trkpt>
      <trkpt lat="43.41938" lon="6.43766">
        <ele>101.7</ele>
        <time>2025-12-08T14:29:28.000Z</time>
      </trkpt>
      <trkpt lat="43.41939" lon="6.43754">
        <ele>102.8</ele>
        <time>2025-12-08T14:29:48.000Z</time>
      </trkpt>
      <trkpt lat="43.4194" lon="6.43741">
        <ele>102.9</ele>
        <time>2025-12-08T14:30:38.000Z</time>
      </trkpt>
      <trkpt lat="43.41942" lon="6.43728">
        <ele>103.2</ele>
        <time>2025-12-08T14:30:48.000Z</time>
      </trkpt>
      <trkpt lat="43.41944" lon="6.43716">
        <ele>103.5</ele>
        <time>2025-12-08T14:30:59.000Z</time>
      </trkpt>
      <trkpt lat="43.41947" lon="6.43703">
        <ele>103.9</ele>
        <time>2025-12-08T14:31:09.000Z</time>
      </trkpt>
      <trkpt lat="43.41949" lon="6.43691">
        <ele>104.5</ele>
        <time>2025-12-08T14:31:19.000Z</time>
      </trkpt>
      <trkpt lat="43.41951" lon="6.43678">
        <ele>105</ele>
        <time>2025-12-08T14:31:29.000Z</time>
      </trkpt>
      <trkpt lat="43.41954" lon="6.43666">
        <ele>105.7</ele>
        <time>2025-12-08T14:31:39.000Z</time>
      </trkpt>
      <trkpt lat="43.41957" lon="6.43653">
        <ele>106.4</ele>
        <time>2025-12-08T14:31:54.000Z</time>
      </trkpt>
      <trkpt lat="43.41958" lon="6.43641">
        <ele>107</ele>
        <time>2025-12-08T14:32:04.000Z</time>
      </trkpt>
      <trkpt lat="43.41958" lon="6.43627">
        <ele>108</ele>
        <time>2025-12-08T14:32:23.000Z</time>
      </trkpt>
      <trkpt lat="43.41961" lon="6.43616">
        <ele>108.4</ele>
        <time>2025-12-08T14:32:32.000Z</time>
      </trkpt>
      <trkpt lat="43.41962" lon="6.43603">
        <ele>109.5</ele>
        <time>2025-12-08T14:32:43.000Z</time>
      </trkpt>
      <trkpt lat="43.41963" lon="6.4359">
        <ele>110.3</ele>
        <time>2025-12-08T14:32:54.000Z</time>
      </trkpt>
      <trkpt lat="43.41966" lon="6.43578">
        <ele>111.2</ele>
        <time>2025-12-08T14:33:05.000Z</time>
      </trkpt>
      <trkpt lat="43.41963" lon="6.43565">
        <ele>112.8</ele>
        <time>2025-12-08T14:33:20.000Z</time>
      </trkpt>
      <trkpt lat="43.41962" lon="6.43553">
        <ele>113.7</ele>
        <time>2025-12-08T14:33:38.000Z</time>
      </trkpt>
      <trkpt lat="43.4196" lon="6.4354">
        <ele>114.8</ele>
        <time>2025-12-08T14:33:52.000Z</time>
      </trkpt>
      <trkpt lat="43.41961" lon="6.43527">
        <ele>116.2</ele>
        <time>2025-12-08T14:34:06.000Z</time>
      </trkpt>
      <trkpt lat="43.4197" lon="6.4353">
        <ele>119.5</ele>
        <time>2025-12-08T14:36:02.000Z</time>
      </trkpt>
      <trkpt lat="43.41977" lon="6.43539">
        <ele>119.9</ele>
        <time>2025-12-08T14:36:38.000Z</time>
      </trkpt>
      <trkpt lat="43.41986" lon="6.43543">
        <ele>120.4</ele>
        <time>2025-12-08T14:36:55.000Z</time>
      </trkpt>
      <trkpt lat="43.41995" lon="6.43547">
        <ele>121.3</ele>
        <time>2025-12-08T14:37:13.000Z</time>
      </trkpt>
      <trkpt lat="43.42004" lon="6.43553">
        <ele>122.4</ele>
        <time>2025-12-08T14:37:28.000Z</time>
      </trkpt>
      <trkpt lat="43.42012" lon="6.4356">
        <ele>123.7</ele>
        <time>2025-12-08T14:37:42.000Z</time>
      </trkpt>
      <trkpt lat="43.42021" lon="6.43564">
        <ele>124.9</ele>
        <time>2025-12-08T14:38:02.000Z</time>
      </trkpt>
      <trkpt lat="43.4203" lon="6.43564">
        <ele>126.9</ele>
        <time>2025-12-08T14:38:17.000Z</time>
      </trkpt>
      <trkpt lat="43.42039" lon="6.43569">
        <ele>128.4</ele>
        <time>2025-12-08T14:38:30.000Z</time>
      </trkpt>
      <trkpt lat="43.42047" lon="6.43575">
        <ele>130</ele>
        <time>2025-12-08T14:38:45.000Z</time>
      </trkpt>
      <trkpt lat="43.42057" lon="6.43574">
        <ele>131.5</ele>
        <time>2025-12-08T14:39:05.000Z</time>
      </trkpt>
      <trkpt lat="43.42066" lon="6.43577">
        <ele>133</ele>
        <time>2025-12-08T14:39:20.000Z</time>
      </trkpt>
      <trkpt lat="43.42075" lon="6.43577">
        <ele>134.3</ele>
        <time>2025-12-08T14:39:34.000Z</time>
      </trkpt>
      <trkpt lat="43.42084" lon="6.43577">
        <ele>135.6</ele>
        <time>2025-12-08T14:39:51.000Z</time>
      </trkpt>
      <trkpt lat="43.42093" lon="6.43581">
        <ele>135.3</ele>
        <time>2025-12-08T14:40:15.000Z</time>
      </trkpt>
      <trkpt lat="43.42101" lon="6.43588">
        <ele>133.4</ele>
        <time>2025-12-08T14:40:28.000Z</time>
      </trkpt>
      <trkpt lat="43.4211" lon="6.43594">
        <ele>131.6</ele>
        <time>2025-12-08T14:40:38.000Z</time>
      </trkpt>
      <trkpt lat="43.42119" lon="6.43599">
        <ele>129.2</ele>
        <time>2025-12-08T14:40:49.000Z</time>
      </trkpt>
      <trkpt lat="43.42128" lon="6.43601">
        <ele>126.2</ele>
        <time>2025-12-08T14:41:08.000Z</time>
      </trkpt>
      <trkpt lat="43.42137" lon="6.43605">
        <ele>124.8</ele>
        <time>2025-12-08T14:41:21.000Z</time>
      </trkpt>
      <trkpt lat="43.42144" lon="6.43614">
        <ele>123.1</ele>
        <time>2025-12-08T14:41:33.000Z</time>
      </trkpt>
      <trkpt lat="43.42146" lon="6.43627">
        <ele>121.7</ele>
        <time>2025-12-08T14:41:41.000Z</time>
      </trkpt>
      <trkpt lat="43.42137" lon="6.43628">
        <ele>120.5</ele>
        <time>2025-12-08T14:41:57.000Z</time>
      </trkpt>
      <trkpt lat="43.42136" lon="6.43624">
        <ele>121.1</ele>
        <time>2025-12-08T14:42:20.000Z</time>
      </trkpt>
    </trkseg>
  </trk>
</gpx>